<?xml version="1.0" encoding="UTF-8"?>
<gpx version="1.1" creator="https://www.youtrack.es" xsi:schemaLocation="http://www.topografix.com/GPX/1/1 http://www.topografix.com/GPX/1/1/gpx.xsd http://www.garmin.com/xmlschemas/GpxExtensions/v3 http://www.garmin.com/xmlschemas/GpxExtensionsv3.xsd http://www.garmin.com/xmlschemas/TrackPointExtension/v1 http://www.garmin.com/xmlschemas/TrackPointExtensionv1.xsd" xmlns:gpxtpx="http://www.garmin.com/xmlschemas/TrackPointExtension/v1" xmlns:gpxx="http://www.garmin.com/xmlschemas/GpxExtensions/v3" xmlns:xsi="http://www.w3.org/2001/XMLSchema-instance">
  <metadata>
    <link href="https://www.youtrack.es">
      <text>YouTrack.es</text>
    </link>
    <time>2026-05-08T02:45:24Z</time>
  </metadata>
  <trk>
    <src>https://www.youtrack.es</src>
    <link href="https://www.youtrack.es/ruta/12376-union-camino-santiago">
      <text>YouTrack.es</text>
    </link>
    <trkseg>
      <trkpt lat="42.372160" lon="-5.024800">
        <ele>833.013</ele>
        <time>2020-04-02T12:24:09Z</time>
      </trkpt>
      <trkpt lat="42.371990" lon="-5.024760">
        <ele>833.043</ele>
        <time>2020-04-02T12:24:29Z</time>
      </trkpt>
      <trkpt lat="42.371830" lon="-5.024900">
        <ele>833.007</ele>
        <time>2020-04-02T12:24:49Z</time>
      </trkpt>
      <trkpt lat="42.371850" lon="-5.025380">
        <ele>833.007</ele>
        <time>2020-04-02T12:25:09Z</time>
      </trkpt>
      <trkpt lat="42.371690" lon="-5.025700">
        <ele>833.094</ele>
        <time>2020-04-02T12:25:29Z</time>
      </trkpt>
      <trkpt lat="42.371520" lon="-5.025790">
        <ele>834.041</ele>
        <time>2020-04-02T12:25:49Z</time>
      </trkpt>
      <trkpt lat="42.370900" lon="-5.026390">
        <ele>835.041</ele>
        <time>2020-04-02T12:26:09Z</time>
      </trkpt>
      <trkpt lat="42.370490" lon="-5.026550">
        <ele>833.074</ele>
        <time>2020-04-02T12:26:29Z</time>
      </trkpt>
      <trkpt lat="42.370400" lon="-5.026720">
        <ele>833.058</ele>
        <time>2020-04-02T12:26:49Z</time>
      </trkpt>
      <trkpt lat="42.370580" lon="-5.027610">
        <ele>828.031</ele>
        <time>2020-04-02T12:27:09Z</time>
      </trkpt>
      <trkpt lat="42.370800" lon="-5.028090">
        <ele>824.063</ele>
        <time>2020-04-02T12:27:29Z</time>
      </trkpt>
      <trkpt lat="42.371540" lon="-5.029080">
        <ele>819.053</ele>
        <time>2020-04-02T12:27:49Z</time>
      </trkpt>
      <trkpt lat="42.371750" lon="-5.029620">
        <ele>818.004</ele>
        <time>2020-04-02T12:28:09Z</time>
      </trkpt>
      <trkpt lat="42.371930" lon="-5.030460">
        <ele>819.014</ele>
        <time>2020-04-02T12:28:29Z</time>
      </trkpt>
      <trkpt lat="42.372300" lon="-5.031250">
        <ele>818.007</ele>
        <time>2020-04-02T12:28:49Z</time>
      </trkpt>
      <trkpt lat="42.372300" lon="-5.031530">
        <ele>817.078</ele>
        <time>2020-04-02T12:29:09Z</time>
      </trkpt>
      <trkpt lat="42.372170" lon="-5.031950">
        <ele>816.025</ele>
        <time>2020-04-02T12:29:29Z</time>
      </trkpt>
      <trkpt lat="42.372330" lon="-5.032790">
        <ele>814.075</ele>
        <time>2020-04-02T12:29:49Z</time>
      </trkpt>
      <trkpt lat="42.372310" lon="-5.032990">
        <ele>814.038</ele>
        <time>2020-04-02T12:30:09Z</time>
      </trkpt>
      <trkpt lat="42.370430" lon="-5.033780">
        <ele>817.092</ele>
        <time>2020-04-02T12:30:29Z</time>
      </trkpt>
      <trkpt lat="42.370300" lon="-5.033930">
        <ele>816.025</ele>
        <time>2020-04-02T12:30:49Z</time>
      </trkpt>
      <trkpt lat="42.370080" lon="-5.034780">
        <ele>805.077</ele>
        <time>2020-04-02T12:31:09Z</time>
      </trkpt>
      <trkpt lat="42.369860" lon="-5.035130">
        <ele>800.071</ele>
        <time>2020-04-02T12:31:29Z</time>
      </trkpt>
      <trkpt lat="42.368710" lon="-5.035920">
        <ele>784.041</ele>
        <time>2020-04-02T12:31:49Z</time>
      </trkpt>
      <trkpt lat="42.368790" lon="-5.036940">
        <ele>776.015</ele>
        <time>2020-04-02T12:32:09Z</time>
      </trkpt>
      <trkpt lat="42.369100" lon="-5.037880">
        <ele>780.007</ele>
        <time>2020-04-02T12:32:29Z</time>
      </trkpt>
      <trkpt lat="42.372060" lon="-5.045520">
        <ele>792.090</ele>
        <time>2020-04-02T12:32:49Z</time>
      </trkpt>
      <trkpt lat="42.373880" lon="-5.048980">
        <ele>781.057</ele>
        <time>2020-04-02T12:33:09Z</time>
      </trkpt>
      <trkpt lat="42.373930" lon="-5.049390">
        <ele>780.017</ele>
        <time>2020-04-02T12:33:29Z</time>
      </trkpt>
      <trkpt lat="42.373850" lon="-5.049490">
        <ele>780.020</ele>
        <time>2020-04-02T12:33:49Z</time>
      </trkpt>
      <trkpt lat="42.373850" lon="-5.049600">
        <ele>780.024</ele>
        <time>2020-04-02T12:34:09Z</time>
      </trkpt>
      <trkpt lat="42.374430" lon="-5.050010">
        <ele>784.067</ele>
        <time>2020-04-02T12:34:29Z</time>
      </trkpt>
      <trkpt lat="42.375260" lon="-5.051620">
        <ele>790.069</ele>
        <time>2020-04-02T12:34:49Z</time>
      </trkpt>
      <trkpt lat="42.375620" lon="-5.052610">
        <ele>790.047</ele>
        <time>2020-04-02T12:35:09Z</time>
      </trkpt>
      <trkpt lat="42.376370" lon="-5.056690">
        <ele>796.029</ele>
        <time>2020-04-02T12:35:29Z</time>
      </trkpt>
      <trkpt lat="42.377390" lon="-5.060850">
        <ele>801.021</ele>
        <time>2020-04-02T12:35:49Z</time>
      </trkpt>
      <trkpt lat="42.378210" lon="-5.063770">
        <ele>795.007</ele>
        <time>2020-04-02T12:36:09Z</time>
      </trkpt>
      <trkpt lat="42.378500" lon="-5.064430">
        <ele>793.027</ele>
        <time>2020-04-02T12:36:29Z</time>
      </trkpt>
      <trkpt lat="42.380740" lon="-5.068020">
        <ele>793.044</ele>
        <time>2020-04-02T12:36:49Z</time>
      </trkpt>
      <trkpt lat="42.381300" lon="-5.069520">
        <ele>797.054</ele>
        <time>2020-04-02T12:37:09Z</time>
      </trkpt>
      <trkpt lat="42.382040" lon="-5.071910">
        <ele>804.077</ele>
        <time>2020-04-02T12:37:29Z</time>
      </trkpt>
      <trkpt lat="42.382180" lon="-5.073910">
        <ele>805.061</ele>
        <time>2020-04-02T12:37:49Z</time>
      </trkpt>
      <trkpt lat="42.382280" lon="-5.073970">
        <ele>805.084</ele>
        <time>2020-04-02T12:38:09Z</time>
      </trkpt>
      <trkpt lat="42.382330" lon="-5.074190">
        <ele>805.026</ele>
        <time>2020-04-02T12:38:29Z</time>
      </trkpt>
      <trkpt lat="42.382440" lon="-5.076180">
        <ele>809.087</ele>
        <time>2020-04-02T12:38:49Z</time>
      </trkpt>
      <trkpt lat="42.382410" lon="-5.076660">
        <ele>809.042</ele>
        <time>2020-04-02T12:39:09Z</time>
      </trkpt>
      <trkpt lat="42.382490" lon="-5.076820">
        <ele>810.026</ele>
        <time>2020-04-02T12:39:29Z</time>
      </trkpt>
      <trkpt lat="42.383440" lon="-5.077160">
        <ele>810.007</ele>
        <time>2020-04-02T12:39:49Z</time>
      </trkpt>
      <trkpt lat="42.383380" lon="-5.077210">
        <ele>810.081</ele>
        <time>2020-04-02T12:40:09Z</time>
      </trkpt>
      <trkpt lat="42.382600" lon="-5.076950">
        <ele>810.098</ele>
        <time>2020-04-02T12:40:29Z</time>
      </trkpt>
      <trkpt lat="42.382420" lon="-5.076980">
        <ele>810.058</ele>
        <time>2020-04-02T12:40:49Z</time>
      </trkpt>
      <trkpt lat="42.382360" lon="-5.077260">
        <ele>810.021</ele>
        <time>2020-04-02T12:41:09Z</time>
      </trkpt>
      <trkpt lat="42.382820" lon="-5.078030">
        <ele>811.075</ele>
        <time>2020-04-02T12:41:29Z</time>
      </trkpt>
      <trkpt lat="42.383540" lon="-5.082380">
        <ele>810.068</ele>
        <time>2020-04-02T12:41:49Z</time>
      </trkpt>
      <trkpt lat="42.383750" lon="-5.084060">
        <ele>813.020</ele>
        <time>2020-04-02T12:42:09Z</time>
      </trkpt>
      <trkpt lat="42.384110" lon="-5.090170">
        <ele>810.047</ele>
        <time>2020-04-02T12:42:29Z</time>
      </trkpt>
      <trkpt lat="42.383880" lon="-5.097100">
        <ele>810.029</ele>
        <time>2020-04-02T12:42:49Z</time>
      </trkpt>
      <trkpt lat="42.384630" lon="-5.109530">
        <ele>819.021</ele>
        <time>2020-04-02T12:43:09Z</time>
      </trkpt>
      <trkpt lat="42.384550" lon="-5.110220">
        <ele>821.007</ele>
        <time>2020-04-02T12:43:29Z</time>
      </trkpt>
      <trkpt lat="42.384650" lon="-5.110390">
        <ele>822.067</ele>
        <time>2020-04-02T12:43:49Z</time>
      </trkpt>
      <trkpt lat="42.384760" lon="-5.111270">
        <ele>828.074</ele>
        <time>2020-04-02T12:44:09Z</time>
      </trkpt>
      <trkpt lat="42.385510" lon="-5.114050">
        <ele>816.064</ele>
        <time>2020-04-02T12:44:29Z</time>
      </trkpt>
      <trkpt lat="42.386270" lon="-5.117730">
        <ele>819.057</ele>
        <time>2020-04-02T12:44:49Z</time>
      </trkpt>
      <trkpt lat="42.386950" lon="-5.119880">
        <ele>813.041</ele>
        <time>2020-04-02T12:45:09Z</time>
      </trkpt>
      <trkpt lat="42.388970" lon="-5.130160">
        <ele>822.064</ele>
        <time>2020-04-02T12:45:29Z</time>
      </trkpt>
      <trkpt lat="42.389360" lon="-5.131940">
        <ele>818.046</ele>
        <time>2020-04-02T12:45:49Z</time>
      </trkpt>
      <trkpt lat="42.389430" lon="-5.132540">
        <ele>814.097</ele>
        <time>2020-04-02T12:46:09Z</time>
      </trkpt>
      <trkpt lat="42.388230" lon="-5.139750">
        <ele>835.023</ele>
        <time>2020-04-02T12:46:29Z</time>
      </trkpt>
      <trkpt lat="42.387650" lon="-5.144550">
        <ele>850.025</ele>
        <time>2020-04-02T12:46:49Z</time>
      </trkpt>
      <trkpt lat="42.387680" lon="-5.144910">
        <ele>851.007</ele>
        <time>2020-04-02T12:47:09Z</time>
      </trkpt>
      <trkpt lat="42.388400" lon="-5.146250">
        <ele>845.072</ele>
        <time>2020-04-02T12:47:29Z</time>
      </trkpt>
      <trkpt lat="42.388730" lon="-5.146670">
        <ele>842.039</ele>
        <time>2020-04-02T12:47:49Z</time>
      </trkpt>
      <trkpt lat="42.389430" lon="-5.147330">
        <ele>838.059</ele>
        <time>2020-04-02T12:48:09Z</time>
      </trkpt>
      <trkpt lat="42.390510" lon="-5.149230">
        <ele>836.012</ele>
        <time>2020-04-02T12:48:29Z</time>
      </trkpt>
      <trkpt lat="42.391720" lon="-5.152090">
        <ele>840.036</ele>
        <time>2020-04-02T12:48:49Z</time>
      </trkpt>
      <trkpt lat="42.394110" lon="-5.156410">
        <ele>847.049</ele>
        <time>2020-04-02T12:49:09Z</time>
      </trkpt>
      <trkpt lat="42.397080" lon="-5.163340">
        <ele>847.021</ele>
        <time>2020-04-02T12:49:29Z</time>
      </trkpt>
      <trkpt lat="42.398000" lon="-5.167070">
        <ele>838.029</ele>
        <time>2020-04-02T12:49:49Z</time>
      </trkpt>
      <trkpt lat="42.404740" lon="-5.184060">
        <ele>855.000</ele>
        <time>2020-04-02T12:50:09Z</time>
      </trkpt>
      <trkpt lat="42.407620" lon="-5.190150">
        <ele>859.020</ele>
        <time>2020-04-02T12:50:29Z</time>
      </trkpt>
      <trkpt lat="42.411480" lon="-5.198590">
        <ele>856.007</ele>
        <time>2020-04-02T12:50:49Z</time>
      </trkpt>
      <trkpt lat="42.412540" lon="-5.201160">
        <ele>860.045</ele>
        <time>2020-04-02T12:51:09Z</time>
      </trkpt>
      <trkpt lat="42.414210" lon="-5.204370">
        <ele>861.012</ele>
        <time>2020-04-02T12:51:29Z</time>
      </trkpt>
      <trkpt lat="42.414730" lon="-5.205630">
        <ele>858.092</ele>
        <time>2020-04-02T12:51:49Z</time>
      </trkpt>
      <trkpt lat="42.416840" lon="-5.209320">
        <ele>854.045</ele>
        <time>2020-04-02T12:52:09Z</time>
      </trkpt>
      <trkpt lat="42.416880" lon="-5.209500">
        <ele>854.089</ele>
        <time>2020-04-02T12:52:29Z</time>
      </trkpt>
      <trkpt lat="42.418170" lon="-5.211770">
        <ele>863.022</ele>
        <time>2020-04-02T12:52:49Z</time>
      </trkpt>
      <trkpt lat="42.419930" lon="-5.215320">
        <ele>860.064</ele>
        <time>2020-04-02T12:53:09Z</time>
      </trkpt>
      <trkpt lat="42.420040" lon="-5.215320">
        <ele>860.021</ele>
        <time>2020-04-02T12:53:29Z</time>
      </trkpt>
      <trkpt lat="42.420170" lon="-5.215490">
        <ele>861.041</ele>
        <time>2020-04-02T12:53:49Z</time>
      </trkpt>
      <trkpt lat="42.420230" lon="-5.215300">
        <ele>860.005</ele>
        <time>2020-04-02T12:54:09Z</time>
      </trkpt>
      <trkpt lat="42.420740" lon="-5.215260">
        <ele>858.007</ele>
        <time>2020-04-02T12:54:29Z</time>
      </trkpt>
      <trkpt lat="42.420930" lon="-5.215370">
        <ele>858.075</ele>
        <time>2020-04-02T12:54:49Z</time>
      </trkpt>
      <trkpt lat="42.421790" lon="-5.216270">
        <ele>865.032</ele>
        <time>2020-04-02T12:55:09Z</time>
      </trkpt>
      <trkpt lat="42.422240" lon="-5.217150">
        <ele>865.022</ele>
        <time>2020-04-02T12:55:29Z</time>
      </trkpt>
      <trkpt lat="42.422460" lon="-5.217120">
        <ele>865.015</ele>
        <time>2020-04-02T12:55:49Z</time>
      </trkpt>
      <trkpt lat="42.422620" lon="-5.217310">
        <ele>865.039</ele>
        <time>2020-04-02T12:56:09Z</time>
      </trkpt>
      <trkpt lat="42.423290" lon="-5.218630">
        <ele>869.012</ele>
        <time>2020-04-02T12:56:29Z</time>
      </trkpt>
      <trkpt lat="42.423420" lon="-5.219200">
        <ele>871.064</ele>
        <time>2020-04-02T12:56:49Z</time>
      </trkpt>
      <trkpt lat="42.423430" lon="-5.219640">
        <ele>870.073</ele>
        <time>2020-04-02T12:57:09Z</time>
      </trkpt>
      <trkpt lat="42.423280" lon="-5.220610">
        <ele>866.085</ele>
        <time>2020-04-02T12:57:29Z</time>
      </trkpt>
      <trkpt lat="42.422990" lon="-5.221190">
        <ele>863.013</ele>
        <time>2020-04-02T12:57:49Z</time>
      </trkpt>
      <trkpt lat="42.422960" lon="-5.221370">
        <ele>863.007</ele>
        <time>2020-04-02T12:58:09Z</time>
      </trkpt>
      <trkpt lat="42.423090" lon="-5.221780">
        <ele>864.030</ele>
        <time>2020-04-02T12:58:29Z</time>
      </trkpt>
      <trkpt lat="42.424010" lon="-5.223700">
        <ele>858.027</ele>
        <time>2020-04-02T12:58:49Z</time>
      </trkpt>
      <trkpt lat="42.424070" lon="-5.223950">
        <ele>858.077</ele>
        <time>2020-04-02T12:59:09Z</time>
      </trkpt>
      <trkpt lat="42.425160" lon="-5.225910">
        <ele>861.010</ele>
        <time>2020-04-02T12:59:29Z</time>
      </trkpt>
      <trkpt lat="42.426480" lon="-5.227830">
        <ele>868.094</ele>
        <time>2020-04-02T12:59:49Z</time>
      </trkpt>
      <trkpt lat="42.430830" lon="-5.236830">
        <ele>861.047</ele>
        <time>2020-04-02T13:00:09Z</time>
      </trkpt>
      <trkpt lat="42.433610" lon="-5.245020">
        <ele>845.059</ele>
        <time>2020-04-02T13:00:29Z</time>
      </trkpt>
      <trkpt lat="42.439490" lon="-5.255040">
        <ele>867.063</ele>
        <time>2020-04-02T13:00:49Z</time>
      </trkpt>
      <trkpt lat="42.444520" lon="-5.262290">
        <ele>852.044</ele>
        <time>2020-04-02T13:01:09Z</time>
      </trkpt>
      <trkpt lat="42.448050" lon="-5.268250">
        <ele>845.018</ele>
        <time>2020-04-02T13:01:29Z</time>
      </trkpt>
      <trkpt lat="42.452440" lon="-5.279150">
        <ele>851.007</ele>
        <time>2020-04-02T13:01:49Z</time>
      </trkpt>
      <trkpt lat="42.458470" lon="-5.293510">
        <ele>844.099</ele>
        <time>2020-04-02T13:02:09Z</time>
      </trkpt>
      <trkpt lat="42.460280" lon="-5.299760">
        <ele>848.016</ele>
        <time>2020-04-02T13:02:29Z</time>
      </trkpt>
      <trkpt lat="42.463910" lon="-5.311310">
        <ele>839.056</ele>
        <time>2020-04-02T13:02:49Z</time>
      </trkpt>
      <trkpt lat="42.465230" lon="-5.318110">
        <ele>842.089</ele>
        <time>2020-04-02T13:03:09Z</time>
      </trkpt>
      <trkpt lat="42.465300" lon="-5.318670">
        <ele>842.033</ele>
        <time>2020-04-02T13:03:29Z</time>
      </trkpt>
      <trkpt lat="42.464430" lon="-5.327560">
        <ele>836.026</ele>
        <time>2020-04-02T13:03:49Z</time>
      </trkpt>
      <trkpt lat="42.464450" lon="-5.328010">
        <ele>837.018</ele>
        <time>2020-04-02T13:04:09Z</time>
      </trkpt>
      <trkpt lat="42.464550" lon="-5.328340">
        <ele>838.098</ele>
        <time>2020-04-02T13:04:29Z</time>
      </trkpt>
      <trkpt lat="42.464850" lon="-5.328760">
        <ele>839.015</ele>
        <time>2020-04-02T13:04:49Z</time>
      </trkpt>
      <trkpt lat="42.465180" lon="-5.328950">
        <ele>841.026</ele>
        <time>2020-04-02T13:05:09Z</time>
      </trkpt>
      <trkpt lat="42.467350" lon="-5.329720">
        <ele>831.007</ele>
        <time>2020-04-02T13:05:29Z</time>
      </trkpt>
      <trkpt lat="42.467710" lon="-5.330020">
        <ele>828.042</ele>
        <time>2020-04-02T13:05:49Z</time>
      </trkpt>
      <trkpt lat="42.468010" lon="-5.330540">
        <ele>829.079</ele>
        <time>2020-04-02T13:06:09Z</time>
      </trkpt>
      <trkpt lat="42.468340" lon="-5.331850">
        <ele>831.099</ele>
        <time>2020-04-02T13:06:29Z</time>
      </trkpt>
      <trkpt lat="42.468330" lon="-5.337010">
        <ele>828.012</ele>
        <time>2020-04-02T13:06:49Z</time>
      </trkpt>
      <trkpt lat="42.468420" lon="-5.337440">
        <ele>826.066</ele>
        <time>2020-04-02T13:07:09Z</time>
      </trkpt>
      <trkpt lat="42.468640" lon="-5.338000">
        <ele>826.039</ele>
        <time>2020-04-02T13:07:29Z</time>
      </trkpt>
      <trkpt lat="42.470150" lon="-5.339620">
        <ele>834.021</ele>
        <time>2020-04-02T13:07:49Z</time>
      </trkpt>
      <trkpt lat="42.470380" lon="-5.340130">
        <ele>836.085</ele>
        <time>2020-04-02T13:08:09Z</time>
      </trkpt>
      <trkpt lat="42.470510" lon="-5.340820">
        <ele>840.089</ele>
        <time>2020-04-02T13:08:29Z</time>
      </trkpt>
      <trkpt lat="42.470720" lon="-5.343510">
        <ele>842.017</ele>
        <time>2020-04-02T13:08:49Z</time>
      </trkpt>
      <trkpt lat="42.470570" lon="-5.346450">
        <ele>837.007</ele>
        <time>2020-04-02T13:09:09Z</time>
      </trkpt>
      <trkpt lat="42.470670" lon="-5.347700">
        <ele>836.051</ele>
        <time>2020-04-02T13:09:29Z</time>
      </trkpt>
      <trkpt lat="42.471740" lon="-5.350460">
        <ele>823.068</ele>
        <time>2020-04-02T13:09:49Z</time>
      </trkpt>
      <trkpt lat="42.472190" lon="-5.352130">
        <ele>823.028</ele>
        <time>2020-04-02T13:10:09Z</time>
      </trkpt>
      <trkpt lat="42.472400" lon="-5.352380">
        <ele>824.031</ele>
        <time>2020-04-02T13:10:29Z</time>
      </trkpt>
      <trkpt lat="42.472530" lon="-5.352930">
        <ele>821.095</ele>
        <time>2020-04-02T13:10:49Z</time>
      </trkpt>
      <trkpt lat="42.473090" lon="-5.353830">
        <ele>818.068</ele>
        <time>2020-04-02T13:11:09Z</time>
      </trkpt>
      <trkpt lat="42.473330" lon="-5.354560">
        <ele>816.020</ele>
        <time>2020-04-02T13:11:29Z</time>
      </trkpt>
      <trkpt lat="42.473640" lon="-5.355120">
        <ele>814.018</ele>
        <time>2020-04-02T13:11:49Z</time>
      </trkpt>
      <trkpt lat="42.474190" lon="-5.355800">
        <ele>812.098</ele>
        <time>2020-04-02T13:12:09Z</time>
      </trkpt>
      <trkpt lat="42.474900" lon="-5.357280">
        <ele>812.017</ele>
        <time>2020-04-02T13:12:29Z</time>
      </trkpt>
      <trkpt lat="42.475920" lon="-5.358480">
        <ele>807.007</ele>
        <time>2020-04-02T13:12:49Z</time>
      </trkpt>
      <trkpt lat="42.478980" lon="-5.364990">
        <ele>810.024</ele>
        <time>2020-04-02T13:13:09Z</time>
      </trkpt>
      <trkpt lat="42.485410" lon="-5.385820">
        <ele>797.091</ele>
        <time>2020-04-02T13:13:29Z</time>
      </trkpt>
      <trkpt lat="42.493230" lon="-5.404190">
        <ele>795.061</ele>
        <time>2020-04-02T13:13:49Z</time>
      </trkpt>
      <trkpt lat="42.493900" lon="-5.405510">
        <ele>794.044</ele>
        <time>2020-04-02T13:14:09Z</time>
      </trkpt>
      <trkpt lat="42.494390" lon="-5.407060">
        <ele>794.048</ele>
        <time>2020-04-02T13:14:29Z</time>
      </trkpt>
      <trkpt lat="42.494470" lon="-5.407870">
        <ele>792.031</ele>
        <time>2020-04-02T13:14:49Z</time>
      </trkpt>
      <trkpt lat="42.494620" lon="-5.408080">
        <ele>792.073</ele>
        <time>2020-04-02T13:15:09Z</time>
      </trkpt>
      <trkpt lat="42.495260" lon="-5.408550">
        <ele>790.029</ele>
        <time>2020-04-02T13:15:29Z</time>
      </trkpt>
      <trkpt lat="42.495480" lon="-5.408990">
        <ele>790.000</ele>
        <time>2020-04-02T13:15:49Z</time>
      </trkpt>
      <trkpt lat="42.496610" lon="-5.411940">
        <ele>792.020</ele>
        <time>2020-04-02T13:16:09Z</time>
      </trkpt>
      <trkpt lat="42.497390" lon="-5.413750">
        <ele>793.007</ele>
        <time>2020-04-02T13:16:29Z</time>
      </trkpt>
      <trkpt lat="42.497800" lon="-5.415140">
        <ele>794.015</ele>
        <time>2020-04-02T13:16:49Z</time>
      </trkpt>
      <trkpt lat="42.498120" lon="-5.415750">
        <ele>795.062</ele>
        <time>2020-04-02T13:17:09Z</time>
      </trkpt>
      <trkpt lat="42.498240" lon="-5.415720">
        <ele>794.032</ele>
        <time>2020-04-02T13:17:29Z</time>
      </trkpt>
      <trkpt lat="42.498330" lon="-5.415790">
        <ele>794.055</ele>
        <time>2020-04-02T13:17:49Z</time>
      </trkpt>
      <trkpt lat="42.498670" lon="-5.416570">
        <ele>794.029</ele>
        <time>2020-04-02T13:18:09Z</time>
      </trkpt>
      <trkpt lat="42.499010" lon="-5.417710">
        <ele>793.052</ele>
        <time>2020-04-02T13:18:29Z</time>
      </trkpt>
      <trkpt lat="42.498980" lon="-5.417940">
        <ele>793.074</ele>
        <time>2020-04-02T13:18:49Z</time>
      </trkpt>
      <trkpt lat="42.499080" lon="-5.417630">
        <ele>794.073</ele>
        <time>2020-04-02T13:19:09Z</time>
      </trkpt>
      <trkpt lat="42.499350" lon="-5.417780">
        <ele>795.085</ele>
        <time>2020-04-02T13:19:29Z</time>
      </trkpt>
      <trkpt lat="42.500040" lon="-5.418620">
        <ele>793.013</ele>
        <time>2020-04-02T13:19:49Z</time>
      </trkpt>
      <trkpt lat="42.500250" lon="-5.419140">
        <ele>791.007</ele>
        <time>2020-04-02T13:20:09Z</time>
      </trkpt>
      <trkpt lat="42.502600" lon="-5.420720">
        <ele>789.050</ele>
        <time>2020-04-02T13:20:29Z</time>
      </trkpt>
      <trkpt lat="42.502890" lon="-5.421150">
        <ele>787.067</ele>
        <time>2020-04-02T13:20:49Z</time>
      </trkpt>
      <trkpt lat="42.508760" lon="-5.425480">
        <ele>783.047</ele>
        <time>2020-04-02T13:21:09Z</time>
      </trkpt>
      <trkpt lat="42.509020" lon="-5.425980">
        <ele>785.040</ele>
        <time>2020-04-02T13:21:29Z</time>
      </trkpt>
      <trkpt lat="42.510380" lon="-5.426620">
        <ele>782.084</ele>
        <time>2020-04-02T13:21:49Z</time>
      </trkpt>
      <trkpt lat="42.531080" lon="-5.441810">
        <ele>794.087</ele>
        <time>2020-04-02T13:22:09Z</time>
      </trkpt>
      <trkpt lat="42.531300" lon="-5.441890">
        <ele>794.019</ele>
        <time>2020-04-02T13:22:29Z</time>
      </trkpt>
      <trkpt lat="42.534990" lon="-5.444580">
        <ele>796.074</ele>
        <time>2020-04-02T13:22:49Z</time>
      </trkpt>
      <trkpt lat="42.535430" lon="-5.444770">
        <ele>795.056</ele>
        <time>2020-04-02T13:23:09Z</time>
      </trkpt>
      <trkpt lat="42.540180" lon="-5.448250">
        <ele>792.021</ele>
        <time>2020-04-02T13:23:29Z</time>
      </trkpt>
      <trkpt lat="42.540570" lon="-5.448470">
        <ele>792.007</ele>
        <time>2020-04-02T13:23:49Z</time>
      </trkpt>
      <trkpt lat="42.541960" lon="-5.448930">
        <ele>793.050</ele>
        <time>2020-04-02T13:24:09Z</time>
      </trkpt>
      <trkpt lat="42.542630" lon="-5.449440">
        <ele>794.067</ele>
        <time>2020-04-02T13:24:29Z</time>
      </trkpt>
      <trkpt lat="42.543140" lon="-5.450200">
        <ele>794.087</ele>
        <time>2020-04-02T13:24:49Z</time>
      </trkpt>
      <trkpt lat="42.543600" lon="-5.451710">
        <ele>798.080</ele>
        <time>2020-04-02T13:25:09Z</time>
      </trkpt>
      <trkpt lat="42.543770" lon="-5.453200">
        <ele>799.054</ele>
        <time>2020-04-02T13:25:29Z</time>
      </trkpt>
      <trkpt lat="42.544010" lon="-5.454650">
        <ele>797.047</ele>
        <time>2020-04-02T13:25:49Z</time>
      </trkpt>
      <trkpt lat="42.544100" lon="-5.454830">
        <ele>797.059</ele>
        <time>2020-04-02T13:26:09Z</time>
      </trkpt>
      <trkpt lat="42.544210" lon="-5.454790">
        <ele>797.088</ele>
        <time>2020-04-02T13:26:29Z</time>
      </trkpt>
      <trkpt lat="42.544240" lon="-5.454850">
        <ele>797.024</ele>
        <time>2020-04-02T13:26:49Z</time>
      </trkpt>
      <trkpt lat="42.544150" lon="-5.455100">
        <ele>797.026</ele>
        <time>2020-04-02T13:27:09Z</time>
      </trkpt>
      <trkpt lat="42.544260" lon="-5.455580">
        <ele>797.007</ele>
        <time>2020-04-02T13:27:29Z</time>
      </trkpt>
      <trkpt lat="42.544360" lon="-5.456530">
        <ele>798.071</ele>
        <time>2020-04-02T13:27:49Z</time>
      </trkpt>
      <trkpt lat="42.544670" lon="-5.457770">
        <ele>799.018</ele>
        <time>2020-04-02T13:28:09Z</time>
      </trkpt>
      <trkpt lat="42.545030" lon="-5.458400">
        <ele>801.058</ele>
        <time>2020-04-02T13:28:29Z</time>
      </trkpt>
      <trkpt lat="42.546310" lon="-5.460040">
        <ele>804.091</ele>
        <time>2020-04-02T13:28:49Z</time>
      </trkpt>
      <trkpt lat="42.546500" lon="-5.460380">
        <ele>803.035</ele>
        <time>2020-04-02T13:29:09Z</time>
      </trkpt>
      <trkpt lat="42.547830" lon="-5.462250">
        <ele>804.018</ele>
        <time>2020-04-02T13:29:29Z</time>
      </trkpt>
      <trkpt lat="42.548040" lon="-5.462450">
        <ele>805.080</ele>
        <time>2020-04-02T13:29:49Z</time>
      </trkpt>
      <trkpt lat="42.550830" lon="-5.466430">
        <ele>804.088</ele>
        <time>2020-04-02T13:30:09Z</time>
      </trkpt>
      <trkpt lat="42.551230" lon="-5.466490">
        <ele>805.024</ele>
        <time>2020-04-02T13:30:29Z</time>
      </trkpt>
      <trkpt lat="42.553830" lon="-5.469170">
        <ele>812.026</ele>
        <time>2020-04-02T13:30:49Z</time>
      </trkpt>
      <trkpt lat="42.554200" lon="-5.469740">
        <ele>814.007</ele>
        <time>2020-04-02T13:31:09Z</time>
      </trkpt>
      <trkpt lat="42.554710" lon="-5.470320">
        <ele>813.031</ele>
        <time>2020-04-02T13:31:29Z</time>
      </trkpt>
      <trkpt lat="42.555670" lon="-5.471970">
        <ele>816.058</ele>
        <time>2020-04-02T13:31:49Z</time>
      </trkpt>
      <trkpt lat="42.556340" lon="-5.473410">
        <ele>814.068</ele>
        <time>2020-04-02T13:32:09Z</time>
      </trkpt>
      <trkpt lat="42.556600" lon="-5.474310">
        <ele>815.031</ele>
        <time>2020-04-02T13:32:29Z</time>
      </trkpt>
      <trkpt lat="42.557080" lon="-5.475430">
        <ele>815.025</ele>
        <time>2020-04-02T13:32:49Z</time>
      </trkpt>
      <trkpt lat="42.558080" lon="-5.476960">
        <ele>821.078</ele>
        <time>2020-04-02T13:33:09Z</time>
      </trkpt>
      <trkpt lat="42.559370" lon="-5.479370">
        <ele>823.060</ele>
        <time>2020-04-02T13:33:29Z</time>
      </trkpt>
      <trkpt lat="42.560820" lon="-5.480870">
        <ele>827.018</ele>
        <time>2020-04-02T13:33:49Z</time>
      </trkpt>
      <trkpt lat="42.562650" lon="-5.483380">
        <ele>823.098</ele>
        <time>2020-04-02T13:34:09Z</time>
      </trkpt>
      <trkpt lat="42.563430" lon="-5.485530">
        <ele>826.017</ele>
        <time>2020-04-02T13:34:29Z</time>
      </trkpt>
      <trkpt lat="42.564390" lon="-5.486410">
        <ele>824.007</ele>
        <time>2020-04-02T13:34:49Z</time>
      </trkpt>
      <trkpt lat="42.564450" lon="-5.486640">
        <ele>824.014</ele>
        <time>2020-04-02T13:35:09Z</time>
      </trkpt>
      <trkpt lat="42.564410" lon="-5.488260">
        <ele>827.081</ele>
        <time>2020-04-02T13:35:29Z</time>
      </trkpt>
      <trkpt lat="42.565230" lon="-5.490620">
        <ele>821.051</ele>
        <time>2020-04-02T13:35:49Z</time>
      </trkpt>
      <trkpt lat="42.565800" lon="-5.492530">
        <ele>830.064</ele>
        <time>2020-04-02T13:36:09Z</time>
      </trkpt>
      <trkpt lat="42.566420" lon="-5.493720">
        <ele>832.058</ele>
        <time>2020-04-02T13:36:29Z</time>
      </trkpt>
      <trkpt lat="42.567190" lon="-5.496100">
        <ele>851.041</ele>
        <time>2020-04-02T13:36:49Z</time>
      </trkpt>
      <trkpt lat="42.567500" lon="-5.496550">
        <ele>852.083</ele>
        <time>2020-04-02T13:37:09Z</time>
      </trkpt>
      <trkpt lat="42.567640" lon="-5.497120">
        <ele>853.033</ele>
        <time>2020-04-02T13:37:29Z</time>
      </trkpt>
      <trkpt lat="42.568030" lon="-5.500940">
        <ele>841.023</ele>
        <time>2020-04-02T13:37:49Z</time>
      </trkpt>
      <trkpt lat="42.568390" lon="-5.503190">
        <ele>845.015</ele>
        <time>2020-04-02T13:38:09Z</time>
      </trkpt>
      <trkpt lat="42.568960" lon="-5.505170">
        <ele>845.007</ele>
        <time>2020-04-02T13:38:29Z</time>
      </trkpt>
      <trkpt lat="42.569470" lon="-5.506520">
        <ele>842.026</ele>
        <time>2020-04-02T13:38:49Z</time>
      </trkpt>
      <trkpt lat="42.570920" lon="-5.513300">
        <ele>863.093</ele>
        <time>2020-04-02T13:39:09Z</time>
      </trkpt>
      <trkpt lat="42.572600" lon="-5.520690">
        <ele>880.063</ele>
        <time>2020-04-02T13:39:29Z</time>
      </trkpt>
      <trkpt lat="42.572600" lon="-5.521120">
        <ele>878.036</ele>
        <time>2020-04-02T13:39:49Z</time>
      </trkpt>
      <trkpt lat="42.572740" lon="-5.521410">
        <ele>878.020</ele>
        <time>2020-04-02T13:40:09Z</time>
      </trkpt>
      <trkpt lat="42.573330" lon="-5.524090">
        <ele>886.083</ele>
        <time>2020-04-02T13:40:29Z</time>
      </trkpt>
      <trkpt lat="42.573260" lon="-5.524300">
        <ele>886.095</ele>
        <time>2020-04-02T13:40:49Z</time>
      </trkpt>
      <trkpt lat="42.572070" lon="-5.525460">
        <ele>890.051</ele>
        <time>2020-04-02T13:41:09Z</time>
      </trkpt>
      <trkpt lat="42.571940" lon="-5.525810">
        <ele>891.001</ele>
        <time>2020-04-02T13:41:29Z</time>
      </trkpt>
      <trkpt lat="42.572160" lon="-5.526770">
        <ele>892.011</ele>
        <time>2020-04-02T13:41:49Z</time>
      </trkpt>
      <trkpt lat="42.572550" lon="-5.527330">
        <ele>891.007</ele>
        <time>2020-04-02T13:42:09Z</time>
      </trkpt>
      <trkpt lat="42.572990" lon="-5.527420">
        <ele>892.098</ele>
        <time>2020-04-02T13:42:29Z</time>
      </trkpt>
      <trkpt lat="42.573190" lon="-5.527730">
        <ele>894.025</ele>
        <time>2020-04-02T13:42:49Z</time>
      </trkpt>
      <trkpt lat="42.573310" lon="-5.528830">
        <ele>895.075</ele>
        <time>2020-04-02T13:43:09Z</time>
      </trkpt>
      <trkpt lat="42.573530" lon="-5.529500">
        <ele>891.068</ele>
        <time>2020-04-02T13:43:29Z</time>
      </trkpt>
      <trkpt lat="42.573900" lon="-5.530210">
        <ele>892.012</ele>
        <time>2020-04-02T13:43:49Z</time>
      </trkpt>
      <trkpt lat="42.573830" lon="-5.530310">
        <ele>892.035</ele>
        <time>2020-04-02T13:44:09Z</time>
      </trkpt>
      <trkpt lat="42.573860" lon="-5.530430">
        <ele>892.087</ele>
        <time>2020-04-02T13:44:29Z</time>
      </trkpt>
      <trkpt lat="42.573780" lon="-5.530390">
        <ele>892.034</ele>
        <time>2020-04-02T13:44:49Z</time>
      </trkpt>
      <trkpt lat="42.573990" lon="-5.530830">
        <ele>893.055</ele>
        <time>2020-04-02T13:45:09Z</time>
      </trkpt>
      <trkpt lat="42.573760" lon="-5.531050">
        <ele>893.010</ele>
        <time>2020-04-02T13:45:29Z</time>
      </trkpt>
      <trkpt lat="42.574070" lon="-5.531880">
        <ele>897.007</ele>
        <time>2020-04-02T13:45:49Z</time>
      </trkpt>
      <trkpt lat="42.574420" lon="-5.533340">
        <ele>895.046</ele>
        <time>2020-04-02T13:46:09Z</time>
      </trkpt>
      <trkpt lat="42.574630" lon="-5.535130">
        <ele>879.033</ele>
        <time>2020-04-02T13:46:29Z</time>
      </trkpt>
      <trkpt lat="42.574750" lon="-5.535670">
        <ele>875.063</ele>
        <time>2020-04-02T13:46:49Z</time>
      </trkpt>
      <trkpt lat="42.574950" lon="-5.537610">
        <ele>865.026</ele>
        <time>2020-04-02T13:47:09Z</time>
      </trkpt>
      <trkpt lat="42.574930" lon="-5.538200">
        <ele>861.080</ele>
        <time>2020-04-02T13:47:29Z</time>
      </trkpt>
      <trkpt lat="42.574620" lon="-5.539010">
        <ele>857.033</ele>
        <time>2020-04-02T13:47:49Z</time>
      </trkpt>
      <trkpt lat="42.574340" lon="-5.539230">
        <ele>855.045</ele>
        <time>2020-04-02T13:48:09Z</time>
      </trkpt>
      <trkpt lat="42.574490" lon="-5.540140">
        <ele>849.037</ele>
        <time>2020-04-02T13:48:29Z</time>
      </trkpt>
      <trkpt lat="42.574980" lon="-5.540290">
        <ele>850.049</ele>
        <time>2020-04-02T13:48:49Z</time>
      </trkpt>
      <trkpt lat="42.575400" lon="-5.540710">
        <ele>848.013</ele>
        <time>2020-04-02T13:49:09Z</time>
      </trkpt>
      <trkpt lat="42.575560" lon="-5.541000">
        <ele>847.007</ele>
        <time>2020-04-02T13:49:29Z</time>
      </trkpt>
      <trkpt lat="42.575840" lon="-5.541810">
        <ele>843.026</ele>
        <time>2020-04-02T13:49:49Z</time>
      </trkpt>
      <trkpt lat="42.576860" lon="-5.543880">
        <ele>838.093</ele>
        <time>2020-04-02T13:50:09Z</time>
      </trkpt>
      <trkpt lat="42.577060" lon="-5.544070">
        <ele>836.083</ele>
        <time>2020-04-02T13:50:29Z</time>
      </trkpt>
      <trkpt lat="42.577260" lon="-5.544530">
        <ele>836.086</ele>
        <time>2020-04-02T13:50:49Z</time>
      </trkpt>
      <trkpt lat="42.577440" lon="-5.544760">
        <ele>836.010</ele>
        <time>2020-04-02T13:51:09Z</time>
      </trkpt>
      <trkpt lat="42.577630" lon="-5.544790">
        <ele>836.083</ele>
        <time>2020-04-02T13:51:29Z</time>
      </trkpt>
      <trkpt lat="42.577700" lon="-5.544900">
        <ele>836.055</ele>
        <time>2020-04-02T13:51:49Z</time>
      </trkpt>
      <trkpt lat="42.577690" lon="-5.545330">
        <ele>835.039</ele>
        <time>2020-04-02T13:52:09Z</time>
      </trkpt>
      <trkpt lat="42.580890" lon="-5.552270">
        <ele>818.001</ele>
        <time>2020-04-02T13:52:29Z</time>
      </trkpt>
      <trkpt lat="42.581010" lon="-5.553270">
        <ele>815.021</ele>
        <time>2020-04-02T13:52:49Z</time>
      </trkpt>
      <trkpt lat="42.581390" lon="-5.554710">
        <ele>813.007</ele>
        <time>2020-04-02T13:53:09Z</time>
      </trkpt>
      <trkpt lat="42.581490" lon="-5.555330">
        <ele>813.066</ele>
        <time>2020-04-02T13:53:29Z</time>
      </trkpt>
      <trkpt lat="42.581980" lon="-5.556320">
        <ele>807.063</ele>
        <time>2020-04-02T13:53:49Z</time>
      </trkpt>
      <trkpt lat="42.582400" lon="-5.556740">
        <ele>810.043</ele>
        <time>2020-04-02T13:54:09Z</time>
      </trkpt>
      <trkpt lat="42.582490" lon="-5.556720">
        <ele>810.076</ele>
        <time>2020-04-02T13:54:29Z</time>
      </trkpt>
      <trkpt lat="42.582840" lon="-5.556370">
        <ele>813.070</ele>
        <time>2020-04-02T13:54:49Z</time>
      </trkpt>
      <trkpt lat="42.583010" lon="-5.556400">
        <ele>816.013</ele>
        <time>2020-04-02T13:55:09Z</time>
      </trkpt>
      <trkpt lat="42.584850" lon="-5.558270">
        <ele>813.075</ele>
        <time>2020-04-02T13:55:29Z</time>
      </trkpt>
      <trkpt lat="42.585030" lon="-5.558650">
        <ele>814.048</ele>
        <time>2020-04-02T13:55:49Z</time>
      </trkpt>
      <trkpt lat="42.585390" lon="-5.558920">
        <ele>815.061</ele>
        <time>2020-04-02T13:56:09Z</time>
      </trkpt>
      <trkpt lat="42.587000" lon="-5.560460">
        <ele>815.017</ele>
        <time>2020-04-02T13:56:29Z</time>
      </trkpt>
      <trkpt lat="42.587210" lon="-5.560970">
        <ele>816.007</ele>
        <time>2020-04-02T13:56:49Z</time>
      </trkpt>
      <trkpt lat="42.587300" lon="-5.561780">
        <ele>815.057</ele>
        <time>2020-04-02T13:57:09Z</time>
      </trkpt>
      <trkpt lat="42.587140" lon="-5.562550">
        <ele>814.054</ele>
        <time>2020-04-02T13:57:29Z</time>
      </trkpt>
      <trkpt lat="42.587000" lon="-5.564590">
        <ele>813.034</ele>
        <time>2020-04-02T13:57:49Z</time>
      </trkpt>
      <trkpt lat="42.586780" lon="-5.566600">
        <ele>822.087</ele>
        <time>2020-04-02T13:58:09Z</time>
      </trkpt>
      <trkpt lat="42.586460" lon="-5.572000">
        <ele>824.071</ele>
        <time>2020-04-02T13:58:29Z</time>
      </trkpt>
      <trkpt lat="42.586370" lon="-5.572200">
        <ele>823.014</ele>
        <time>2020-04-02T13:58:49Z</time>
      </trkpt>
      <trkpt lat="42.591570" lon="-5.575990">
        <ele>827.046</ele>
        <time>2020-04-02T13:59:09Z</time>
      </trkpt>
      <trkpt lat="42.586300" lon="-5.573370">
        <ele>818.051</ele>
        <time>2020-04-02T13:59:29Z</time>
      </trkpt>
      <trkpt lat="42.586170" lon="-5.575610">
        <ele>816.001</ele>
        <time>2020-04-02T13:59:49Z</time>
      </trkpt>
      <trkpt lat="42.586060" lon="-5.575790">
        <ele>818.011</ele>
        <time>2020-04-02T14:00:09Z</time>
      </trkpt>
      <trkpt lat="42.585570" lon="-5.580580">
        <ele>817.007</ele>
        <time>2020-04-02T14:00:29Z</time>
      </trkpt>
      <trkpt lat="42.585330" lon="-5.584000">
        <ele>824.058</ele>
        <time>2020-04-02T14:00:49Z</time>
      </trkpt>
      <trkpt lat="42.585360" lon="-5.584140">
        <ele>826.085</ele>
        <time>2020-04-02T14:01:09Z</time>
      </trkpt>
      <trkpt lat="42.585210" lon="-5.584730">
        <ele>827.045</ele>
        <time>2020-04-02T14:01:29Z</time>
      </trkpt>
      <trkpt lat="42.585070" lon="-5.585820">
        <ele>820.018</ele>
        <time>2020-04-02T14:01:49Z</time>
      </trkpt>
      <trkpt lat="42.584770" lon="-5.589810">
        <ele>820.022</ele>
        <time>2020-04-02T14:02:09Z</time>
      </trkpt>
      <trkpt lat="42.584900" lon="-5.590180">
        <ele>822.025</ele>
        <time>2020-04-02T14:02:29Z</time>
      </trkpt>
      <trkpt lat="42.584960" lon="-5.590120">
        <ele>821.067</ele>
        <time>2020-04-02T14:02:49Z</time>
      </trkpt>
      <trkpt lat="42.584730" lon="-5.590470">
        <ele>821.053</ele>
        <time>2020-04-02T14:03:09Z</time>
      </trkpt>
      <trkpt lat="42.584240" lon="-5.594810">
        <ele>819.004</ele>
        <time>2020-04-02T14:03:29Z</time>
      </trkpt>
      <trkpt lat="42.584000" lon="-5.597610">
        <ele>824.014</ele>
        <time>2020-04-02T14:03:49Z</time>
      </trkpt>
      <trkpt lat="42.584150" lon="-5.598020">
        <ele>828.007</ele>
        <time>2020-04-02T14:04:09Z</time>
      </trkpt>
      <trkpt lat="42.584050" lon="-5.598490">
        <ele>830.028</ele>
        <time>2020-04-02T14:04:29Z</time>
      </trkpt>
      <trkpt lat="42.583880" lon="-5.598900">
        <ele>829.085</ele>
        <time>2020-04-02T14:04:49Z</time>
      </trkpt>
      <trkpt lat="42.583600" lon="-5.601750">
        <ele>832.095</ele>
        <time>2020-04-02T14:05:09Z</time>
      </trkpt>
      <trkpt lat="42.583730" lon="-5.602650">
        <ele>836.038</ele>
        <time>2020-04-02T14:05:29Z</time>
      </trkpt>
      <trkpt lat="42.584080" lon="-5.603500">
        <ele>841.062</ele>
        <time>2020-04-02T14:05:49Z</time>
      </trkpt>
      <trkpt lat="42.585650" lon="-5.605310">
        <ele>847.075</ele>
        <time>2020-04-02T14:06:09Z</time>
      </trkpt>
      <trkpt lat="42.586090" lon="-5.605920">
        <ele>846.027</ele>
        <time>2020-04-02T14:06:29Z</time>
      </trkpt>
      <trkpt lat="42.586130" lon="-5.606080">
        <ele>847.063</ele>
        <time>2020-04-02T14:06:49Z</time>
      </trkpt>
      <trkpt lat="42.590540" lon="-5.611610">
        <ele>862.044</ele>
        <time>2020-04-02T14:07:09Z</time>
      </trkpt>
      <trkpt lat="42.590900" lon="-5.612220">
        <ele>862.018</ele>
        <time>2020-04-02T14:07:29Z</time>
      </trkpt>
      <trkpt lat="42.591090" lon="-5.612800">
        <ele>862.007</ele>
        <time>2020-04-02T14:07:49Z</time>
      </trkpt>
      <trkpt lat="42.591180" lon="-5.613510">
        <ele>862.029</ele>
        <time>2020-04-02T14:08:09Z</time>
      </trkpt>
      <trkpt lat="42.591120" lon="-5.614480">
        <ele>863.076</ele>
        <time>2020-04-02T14:08:29Z</time>
      </trkpt>
      <trkpt lat="42.590980" lon="-5.615000">
        <ele>864.026</ele>
        <time>2020-04-02T14:08:49Z</time>
      </trkpt>
      <trkpt lat="42.587590" lon="-5.624420">
        <ele>879.019</ele>
        <time>2020-04-02T14:09:09Z</time>
      </trkpt>
      <trkpt lat="42.583480" lon="-5.635510">
        <ele>902.063</ele>
        <time>2020-04-02T14:09:29Z</time>
      </trkpt>
      <trkpt lat="42.580250" lon="-5.640780">
        <ele>911.026</ele>
        <time>2020-04-02T14:09:49Z</time>
      </trkpt>
      <trkpt lat="42.578980" lon="-5.642670">
        <ele>898.048</ele>
        <time>2020-04-02T14:10:09Z</time>
      </trkpt>
      <trkpt lat="42.578690" lon="-5.643200">
        <ele>892.078</ele>
        <time>2020-04-02T14:10:29Z</time>
      </trkpt>
      <trkpt lat="42.578250" lon="-5.644540">
        <ele>886.033</ele>
        <time>2020-04-02T14:10:49Z</time>
      </trkpt>
      <trkpt lat="42.577540" lon="-5.648820">
        <ele>900.026</ele>
        <time>2020-04-02T14:11:09Z</time>
      </trkpt>
      <trkpt lat="42.576980" lon="-5.650240">
        <ele>902.007</ele>
        <time>2020-04-02T14:11:29Z</time>
      </trkpt>
      <trkpt lat="42.574580" lon="-5.655150">
        <ele>897.020</ele>
        <time>2020-04-02T14:11:49Z</time>
      </trkpt>
      <trkpt lat="42.574120" lon="-5.656580">
        <ele>892.097</ele>
        <time>2020-04-02T14:12:09Z</time>
      </trkpt>
      <trkpt lat="42.573990" lon="-5.657370">
        <ele>887.087</ele>
        <time>2020-04-02T14:12:29Z</time>
      </trkpt>
      <trkpt lat="42.573950" lon="-5.658320">
        <ele>887.030</ele>
        <time>2020-04-02T14:12:49Z</time>
      </trkpt>
      <trkpt lat="42.574110" lon="-5.660790">
        <ele>888.024</ele>
        <time>2020-04-02T14:13:09Z</time>
      </trkpt>
      <trkpt lat="42.574120" lon="-5.662200">
        <ele>894.047</ele>
        <time>2020-04-02T14:13:29Z</time>
      </trkpt>
      <trkpt lat="42.573650" lon="-5.667050">
        <ele>899.039</ele>
        <time>2020-04-02T14:13:49Z</time>
      </trkpt>
      <trkpt lat="42.573090" lon="-5.669240">
        <ele>898.084</ele>
        <time>2020-04-02T14:14:09Z</time>
      </trkpt>
      <trkpt lat="42.572830" lon="-5.669500">
        <ele>899.007</ele>
        <time>2020-04-02T14:14:29Z</time>
      </trkpt>
      <trkpt lat="42.569690" lon="-5.681060">
        <ele>890.017</ele>
        <time>2020-04-02T14:14:49Z</time>
      </trkpt>
      <trkpt lat="42.569220" lon="-5.682280">
        <ele>887.007</ele>
        <time>2020-04-02T14:15:09Z</time>
      </trkpt>
      <trkpt lat="42.568970" lon="-5.683140">
        <ele>888.061</ele>
        <time>2020-04-02T14:15:29Z</time>
      </trkpt>
      <trkpt lat="42.567230" lon="-5.687190">
        <ele>901.048</ele>
        <time>2020-04-02T14:15:49Z</time>
      </trkpt>
      <trkpt lat="42.567020" lon="-5.687250">
        <ele>901.028</ele>
        <time>2020-04-02T14:16:09Z</time>
      </trkpt>
      <trkpt lat="42.565200" lon="-5.690680">
        <ele>905.011</ele>
        <time>2020-04-02T14:16:29Z</time>
      </trkpt>
      <trkpt lat="42.564370" lon="-5.692390">
        <ele>899.055</ele>
        <time>2020-04-02T14:16:49Z</time>
      </trkpt>
      <trkpt lat="42.562350" lon="-5.696220">
        <ele>898.098</ele>
        <time>2020-04-02T14:17:09Z</time>
      </trkpt>
      <trkpt lat="42.562190" lon="-5.696630">
        <ele>898.040</ele>
        <time>2020-04-02T14:17:29Z</time>
      </trkpt>
      <trkpt lat="42.559660" lon="-5.701510">
        <ele>901.078</ele>
        <time>2020-04-02T14:17:49Z</time>
      </trkpt>
      <trkpt lat="42.557320" lon="-5.705850">
        <ele>915.033</ele>
        <time>2020-04-02T14:18:09Z</time>
      </trkpt>
      <trkpt lat="42.557100" lon="-5.705920">
        <ele>915.026</ele>
        <time>2020-04-02T14:18:29Z</time>
      </trkpt>
      <trkpt lat="42.553260" lon="-5.714370">
        <ele>914.007</ele>
        <time>2020-04-02T14:18:49Z</time>
      </trkpt>
      <trkpt lat="42.553030" lon="-5.714710">
        <ele>914.010</ele>
        <time>2020-04-02T14:19:09Z</time>
      </trkpt>
      <trkpt lat="42.551160" lon="-5.718860">
        <ele>921.037</ele>
        <time>2020-04-02T14:19:29Z</time>
      </trkpt>
      <trkpt lat="42.550300" lon="-5.720520">
        <ele>915.077</ele>
        <time>2020-04-02T14:19:49Z</time>
      </trkpt>
      <trkpt lat="42.549210" lon="-5.722060">
        <ele>913.010</ele>
        <time>2020-04-02T14:20:09Z</time>
      </trkpt>
      <trkpt lat="42.548500" lon="-5.722740">
        <ele>915.074</ele>
        <time>2020-04-02T14:20:29Z</time>
      </trkpt>
      <trkpt lat="42.547700" lon="-5.724060">
        <ele>915.037</ele>
        <time>2020-04-02T14:20:49Z</time>
      </trkpt>
      <trkpt lat="42.542740" lon="-5.730880">
        <ele>914.039</ele>
        <time>2020-04-02T14:21:09Z</time>
      </trkpt>
      <trkpt lat="42.541220" lon="-5.733060">
        <ele>910.079</ele>
        <time>2020-04-02T14:21:29Z</time>
      </trkpt>
      <trkpt lat="42.540180" lon="-5.734190">
        <ele>908.005</ele>
        <time>2020-04-02T14:21:49Z</time>
      </trkpt>
      <trkpt lat="42.539540" lon="-5.735240">
        <ele>906.025</ele>
        <time>2020-04-02T14:22:09Z</time>
      </trkpt>
      <trkpt lat="42.539580" lon="-5.735120">
        <ele>906.007</ele>
        <time>2020-04-02T14:22:29Z</time>
      </trkpt>
      <trkpt lat="42.539400" lon="-5.735660">
        <ele>907.080</ele>
        <time>2020-04-02T14:22:49Z</time>
      </trkpt>
      <trkpt lat="42.538750" lon="-5.736820">
        <ele>908.087</ele>
        <time>2020-04-02T14:23:09Z</time>
      </trkpt>
      <trkpt lat="42.538200" lon="-5.737440">
        <ele>908.067</ele>
        <time>2020-04-02T14:23:29Z</time>
      </trkpt>
      <trkpt lat="42.535820" lon="-5.740830">
        <ele>907.060</ele>
        <time>2020-04-02T14:23:49Z</time>
      </trkpt>
      <trkpt lat="42.535450" lon="-5.741460">
        <ele>906.054</ele>
        <time>2020-04-02T14:24:09Z</time>
      </trkpt>
      <trkpt lat="42.533760" lon="-5.743850">
        <ele>905.017</ele>
        <time>2020-04-02T14:24:29Z</time>
      </trkpt>
      <trkpt lat="42.531700" lon="-5.746380">
        <ele>903.049</ele>
        <time>2020-04-02T14:24:49Z</time>
      </trkpt>
      <trkpt lat="42.529010" lon="-5.750330">
        <ele>898.077</ele>
        <time>2020-04-02T14:25:09Z</time>
      </trkpt>
      <trkpt lat="42.528430" lon="-5.750940">
        <ele>899.061</ele>
        <time>2020-04-02T14:25:29Z</time>
      </trkpt>
      <trkpt lat="42.528010" lon="-5.751670">
        <ele>899.027</ele>
        <time>2020-04-02T14:25:49Z</time>
      </trkpt>
      <trkpt lat="42.527970" lon="-5.751520">
        <ele>899.007</ele>
        <time>2020-04-02T14:26:09Z</time>
      </trkpt>
      <trkpt lat="42.527870" lon="-5.751690">
        <ele>899.030</ele>
        <time>2020-04-02T14:26:29Z</time>
      </trkpt>
      <trkpt lat="42.527900" lon="-5.751790">
        <ele>899.087</ele>
        <time>2020-04-02T14:26:49Z</time>
      </trkpt>
      <trkpt lat="42.527720" lon="-5.752200">
        <ele>900.017</ele>
        <time>2020-04-02T14:27:09Z</time>
      </trkpt>
      <trkpt lat="42.526590" lon="-5.753720">
        <ele>899.020</ele>
        <time>2020-04-02T14:27:29Z</time>
      </trkpt>
      <trkpt lat="42.525600" lon="-5.755230">
        <ele>902.084</ele>
        <time>2020-04-02T14:27:49Z</time>
      </trkpt>
      <trkpt lat="42.524720" lon="-5.756390">
        <ele>902.067</ele>
        <time>2020-04-02T14:28:09Z</time>
      </trkpt>
      <trkpt lat="42.523350" lon="-5.758480">
        <ele>902.039</ele>
        <time>2020-04-02T14:28:29Z</time>
      </trkpt>
      <trkpt lat="42.521280" lon="-5.761370">
        <ele>900.078</ele>
        <time>2020-04-02T14:28:49Z</time>
      </trkpt>
      <trkpt lat="42.521030" lon="-5.761810">
        <ele>899.033</ele>
        <time>2020-04-02T14:29:09Z</time>
      </trkpt>
      <trkpt lat="42.520360" lon="-5.763620">
        <ele>893.026</ele>
        <time>2020-04-02T14:29:29Z</time>
      </trkpt>
      <trkpt lat="42.520110" lon="-5.764130">
        <ele>892.007</ele>
        <time>2020-04-02T14:29:49Z</time>
      </trkpt>
      <trkpt lat="42.519480" lon="-5.764770">
        <ele>894.090</ele>
        <time>2020-04-02T14:30:09Z</time>
      </trkpt>
      <trkpt lat="42.519110" lon="-5.765000">
        <ele>894.077</ele>
        <time>2020-04-02T14:30:29Z</time>
      </trkpt>
      <trkpt lat="42.518450" lon="-5.765620">
        <ele>892.077</ele>
        <time>2020-04-02T14:30:49Z</time>
      </trkpt>
      <trkpt lat="42.516690" lon="-5.768120">
        <ele>893.050</ele>
        <time>2020-04-02T14:31:09Z</time>
      </trkpt>
      <trkpt lat="42.516300" lon="-5.768940">
        <ele>887.024</ele>
        <time>2020-04-02T14:31:29Z</time>
      </trkpt>
      <trkpt lat="42.516050" lon="-5.770440">
        <ele>883.037</ele>
        <time>2020-04-02T14:31:49Z</time>
      </trkpt>
      <trkpt lat="42.515880" lon="-5.770970">
        <ele>882.089</ele>
        <time>2020-04-02T14:32:09Z</time>
      </trkpt>
      <trkpt lat="42.515370" lon="-5.771730">
        <ele>882.055</ele>
        <time>2020-04-02T14:32:29Z</time>
      </trkpt>
      <trkpt lat="42.515380" lon="-5.771660">
        <ele>882.007</ele>
        <time>2020-04-02T14:32:49Z</time>
      </trkpt>
      <trkpt lat="42.514130" lon="-5.773920">
        <ele>880.017</ele>
        <time>2020-04-02T14:33:09Z</time>
      </trkpt>
      <trkpt lat="42.513960" lon="-5.774040">
        <ele>879.007</ele>
        <time>2020-04-02T14:33:29Z</time>
      </trkpt>
      <trkpt lat="42.513530" lon="-5.773690">
        <ele>880.068</ele>
        <time>2020-04-02T14:33:49Z</time>
      </trkpt>
      <trkpt lat="42.513440" lon="-5.773740">
        <ele>880.035</ele>
        <time>2020-04-02T14:34:09Z</time>
      </trkpt>
      <trkpt lat="42.512220" lon="-5.777290">
        <ele>880.075</ele>
        <time>2020-04-02T14:34:29Z</time>
      </trkpt>
      <trkpt lat="42.497460" lon="-5.804540">
        <ele>865.038</ele>
        <time>2020-04-02T14:34:49Z</time>
      </trkpt>
      <trkpt lat="42.495290" lon="-5.808130">
        <ele>865.022</ele>
        <time>2020-04-02T14:35:09Z</time>
      </trkpt>
      <trkpt lat="42.495120" lon="-5.808270">
        <ele>865.035</ele>
        <time>2020-04-02T14:35:29Z</time>
      </trkpt>
      <trkpt lat="42.494770" lon="-5.808960">
        <ele>866.027</ele>
        <time>2020-04-02T14:35:49Z</time>
      </trkpt>
      <trkpt lat="42.494750" lon="-5.809120">
        <ele>866.088</ele>
        <time>2020-04-02T14:36:09Z</time>
      </trkpt>
      <trkpt lat="42.494220" lon="-5.809990">
        <ele>866.024</ele>
        <time>2020-04-02T14:36:29Z</time>
      </trkpt>
      <trkpt lat="42.492650" lon="-5.813240">
        <ele>851.026</ele>
        <time>2020-04-02T14:36:49Z</time>
      </trkpt>
      <trkpt lat="42.492650" lon="-5.813560">
        <ele>851.007</ele>
        <time>2020-04-02T14:37:09Z</time>
      </trkpt>
      <trkpt lat="42.492800" lon="-5.813790">
        <ele>851.071</ele>
        <time>2020-04-02T14:37:29Z</time>
      </trkpt>
      <trkpt lat="42.491910" lon="-5.815630">
        <ele>851.078</ele>
        <time>2020-04-02T14:37:49Z</time>
      </trkpt>
      <trkpt lat="42.491270" lon="-5.816250">
        <ele>852.078</ele>
        <time>2020-04-02T14:38:09Z</time>
      </trkpt>
      <trkpt lat="42.486430" lon="-5.825460">
        <ele>845.011</ele>
        <time>2020-04-02T14:38:29Z</time>
      </trkpt>
      <trkpt lat="42.486310" lon="-5.825990">
        <ele>845.065</ele>
        <time>2020-04-02T14:38:49Z</time>
      </trkpt>
      <trkpt lat="42.485800" lon="-5.827240">
        <ele>846.078</ele>
        <time>2020-04-02T14:39:09Z</time>
      </trkpt>
      <trkpt lat="42.485240" lon="-5.829300">
        <ele>844.090</ele>
        <time>2020-04-02T14:39:29Z</time>
      </trkpt>
      <trkpt lat="42.484580" lon="-5.829040">
        <ele>842.086</ele>
        <time>2020-04-02T14:39:49Z</time>
      </trkpt>
      <trkpt lat="42.484500" lon="-5.829090">
        <ele>842.060</ele>
        <time>2020-04-02T14:40:09Z</time>
      </trkpt>
      <trkpt lat="42.478620" lon="-5.839940">
        <ele>840.026</ele>
        <time>2020-04-02T14:40:29Z</time>
      </trkpt>
      <trkpt lat="42.476590" lon="-5.843890">
        <ele>836.007</ele>
        <time>2020-04-02T14:40:49Z</time>
      </trkpt>
      <trkpt lat="42.464700" lon="-5.865980">
        <ele>826.091</ele>
        <time>2020-04-02T14:41:09Z</time>
      </trkpt>
      <trkpt lat="42.464570" lon="-5.866440">
        <ele>826.058</ele>
        <time>2020-04-02T14:41:29Z</time>
      </trkpt>
      <trkpt lat="42.464620" lon="-5.866370">
        <ele>826.078</ele>
        <time>2020-04-02T14:41:49Z</time>
      </trkpt>
      <trkpt lat="42.464580" lon="-5.866240">
        <ele>825.021</ele>
        <time>2020-04-02T14:42:09Z</time>
      </trkpt>
      <trkpt lat="42.464740" lon="-5.867030">
        <ele>826.055</ele>
        <time>2020-04-02T14:42:29Z</time>
      </trkpt>
      <trkpt lat="42.464740" lon="-5.867770">
        <ele>827.028</ele>
        <time>2020-04-02T14:42:49Z</time>
      </trkpt>
      <trkpt lat="42.463950" lon="-5.873610">
        <ele>822.090</ele>
        <time>2020-04-02T14:43:09Z</time>
      </trkpt>
      <trkpt lat="42.463940" lon="-5.877220">
        <ele>811.099</ele>
        <time>2020-04-02T14:43:29Z</time>
      </trkpt>
      <trkpt lat="42.464100" lon="-5.879430">
        <ele>824.007</ele>
        <time>2020-04-02T14:43:49Z</time>
      </trkpt>
      <trkpt lat="42.463750" lon="-5.881580">
        <ele>819.027</ele>
        <time>2020-04-02T14:44:09Z</time>
      </trkpt>
      <trkpt lat="42.463640" lon="-5.881910">
        <ele>818.007</ele>
        <time>2020-04-02T14:44:29Z</time>
      </trkpt>
      <trkpt lat="42.463560" lon="-5.882580">
        <ele>819.092</ele>
        <time>2020-04-02T14:44:49Z</time>
      </trkpt>
      <trkpt lat="42.463540" lon="-5.884360">
        <ele>820.059</ele>
        <time>2020-04-02T14:45:09Z</time>
      </trkpt>
      <trkpt lat="42.463280" lon="-5.884300">
        <ele>819.069</ele>
        <time>2020-04-02T14:45:29Z</time>
      </trkpt>
      <trkpt lat="42.463130" lon="-5.884430">
        <ele>819.072</ele>
        <time>2020-04-02T14:45:49Z</time>
      </trkpt>
      <trkpt lat="42.462140" lon="-5.884440">
        <ele>819.086</ele>
        <time>2020-04-02T14:46:09Z</time>
      </trkpt>
      <trkpt lat="42.459370" lon="-5.884580">
        <ele>818.079</ele>
        <time>2020-04-02T14:46:29Z</time>
      </trkpt>
      <trkpt lat="42.459180" lon="-5.884570">
        <ele>817.031</ele>
        <time>2020-04-02T12:23:56Z</time>
      </trkpt>
      <trkpt lat="42.463300" lon="-5.884380">
        <ele>819.061</ele>
        <time>2020-04-02T12:24:16Z</time>
      </trkpt>
      <trkpt lat="42.463060" lon="-5.888180">
        <ele>816.007</ele>
        <time>2020-04-02T12:24:36Z</time>
      </trkpt>
      <trkpt lat="42.461780" lon="-5.892660">
        <ele>817.007</ele>
        <time>2020-04-02T12:24:56Z</time>
      </trkpt>
      <trkpt lat="42.459340" lon="-5.896890">
        <ele>819.016</ele>
        <time>2020-04-02T12:25:16Z</time>
      </trkpt>
      <trkpt lat="42.458210" lon="-5.897960">
        <ele>814.093</ele>
        <time>2020-04-02T12:25:36Z</time>
      </trkpt>
      <trkpt lat="42.457450" lon="-5.899160">
        <ele>814.043</ele>
        <time>2020-04-02T12:25:56Z</time>
      </trkpt>
      <trkpt lat="42.460350" lon="-5.906760">
        <ele>818.056</ele>
        <time>2020-04-02T12:26:16Z</time>
      </trkpt>
      <trkpt lat="42.463570" lon="-5.912400">
        <ele>823.021</ele>
        <time>2020-04-02T12:26:36Z</time>
      </trkpt>
      <trkpt lat="42.462760" lon="-5.912920">
        <ele>825.074</ele>
        <time>2020-04-02T12:26:56Z</time>
      </trkpt>
      <trkpt lat="42.461680" lon="-5.916160">
        <ele>823.025</ele>
        <time>2020-04-02T12:27:16Z</time>
      </trkpt>
      <trkpt lat="42.463310" lon="-5.915770">
        <ele>822.055</ele>
        <time>2020-04-02T12:27:36Z</time>
      </trkpt>
      <trkpt lat="42.463690" lon="-5.917250">
        <ele>826.007</ele>
        <time>2020-04-02T12:27:56Z</time>
      </trkpt>
      <trkpt lat="42.463790" lon="-5.920490">
        <ele>845.017</ele>
        <time>2020-04-02T12:28:16Z</time>
      </trkpt>
      <trkpt lat="42.464550" lon="-5.922880">
        <ele>862.007</ele>
        <time>2020-04-02T12:28:36Z</time>
      </trkpt>
      <trkpt lat="42.464590" lon="-5.923780">
        <ele>869.058</ele>
        <time>2020-04-02T12:28:56Z</time>
      </trkpt>
      <trkpt lat="42.464420" lon="-5.924380">
        <ele>865.075</ele>
        <time>2020-04-02T12:29:16Z</time>
      </trkpt>
      <trkpt lat="42.464150" lon="-5.925300">
        <ele>860.085</ele>
        <time>2020-04-02T12:29:36Z</time>
      </trkpt>
      <trkpt lat="42.464450" lon="-5.927070">
        <ele>856.038</ele>
        <time>2020-04-02T12:29:56Z</time>
      </trkpt>
      <trkpt lat="42.464690" lon="-5.927510">
        <ele>856.013</ele>
        <time>2020-04-02T12:30:16Z</time>
      </trkpt>
      <trkpt lat="42.464780" lon="-5.927810">
        <ele>854.036</ele>
        <time>2020-04-02T12:30:36Z</time>
      </trkpt>
      <trkpt lat="42.465430" lon="-5.929030">
        <ele>850.017</ele>
        <time>2020-04-02T12:30:56Z</time>
      </trkpt>
      <trkpt lat="42.465960" lon="-5.929360">
        <ele>850.065</ele>
        <time>2020-04-02T12:31:16Z</time>
      </trkpt>
      <trkpt lat="42.466830" lon="-5.930490">
        <ele>854.068</ele>
        <time>2020-04-02T12:31:36Z</time>
      </trkpt>
      <trkpt lat="42.467850" lon="-5.931190">
        <ele>857.014</ele>
        <time>2020-04-02T12:31:56Z</time>
      </trkpt>
      <trkpt lat="42.467970" lon="-5.931820">
        <ele>856.007</ele>
        <time>2020-04-02T12:32:16Z</time>
      </trkpt>
      <trkpt lat="42.467990" lon="-5.932350">
        <ele>855.019</ele>
        <time>2020-04-02T12:32:36Z</time>
      </trkpt>
      <trkpt lat="42.467590" lon="-5.932830">
        <ele>853.096</ele>
        <time>2020-04-02T12:32:56Z</time>
      </trkpt>
      <trkpt lat="42.467440" lon="-5.933280">
        <ele>854.096</ele>
        <time>2020-04-02T12:33:16Z</time>
      </trkpt>
      <trkpt lat="42.467630" lon="-5.933310">
        <ele>854.039</ele>
        <time>2020-04-02T12:33:36Z</time>
      </trkpt>
      <trkpt lat="42.467670" lon="-5.933890">
        <ele>855.034</ele>
        <time>2020-04-02T12:33:56Z</time>
      </trkpt>
      <trkpt lat="42.467590" lon="-5.934220">
        <ele>854.047</ele>
        <time>2020-04-02T12:34:16Z</time>
      </trkpt>
      <trkpt lat="42.467340" lon="-5.935420">
        <ele>859.048</ele>
        <time>2020-04-02T12:34:36Z</time>
      </trkpt>
      <trkpt lat="42.466720" lon="-5.936630">
        <ele>867.062</ele>
        <time>2020-04-02T12:34:56Z</time>
      </trkpt>
      <trkpt lat="42.466490" lon="-5.937230">
        <ele>870.083</ele>
        <time>2020-04-02T12:35:16Z</time>
      </trkpt>
      <trkpt lat="42.466280" lon="-5.938060">
        <ele>871.011</ele>
        <time>2020-04-02T12:35:36Z</time>
      </trkpt>
      <trkpt lat="42.465590" lon="-5.939030">
        <ele>875.007</ele>
        <time>2020-04-02T12:35:56Z</time>
      </trkpt>
      <trkpt lat="42.465600" lon="-5.940790">
        <ele>882.049</ele>
        <time>2020-04-02T12:36:16Z</time>
      </trkpt>
      <trkpt lat="42.465490" lon="-5.941220">
        <ele>882.066</ele>
        <time>2020-04-02T12:36:36Z</time>
      </trkpt>
      <trkpt lat="42.465370" lon="-5.943140">
        <ele>883.086</ele>
        <time>2020-04-02T12:36:56Z</time>
      </trkpt>
      <trkpt lat="42.465930" lon="-5.944780">
        <ele>881.059</ele>
        <time>2020-04-02T12:37:16Z</time>
      </trkpt>
      <trkpt lat="42.466010" lon="-5.945340">
        <ele>879.084</ele>
        <time>2020-04-02T12:37:36Z</time>
      </trkpt>
      <trkpt lat="42.465980" lon="-5.946000">
        <ele>874.087</ele>
        <time>2020-04-02T12:37:56Z</time>
      </trkpt>
      <trkpt lat="42.465840" lon="-5.946660">
        <ele>870.038</ele>
        <time>2020-04-02T12:38:16Z</time>
      </trkpt>
      <trkpt lat="42.465710" lon="-5.947360">
        <ele>867.033</ele>
        <time>2020-04-02T12:38:36Z</time>
      </trkpt>
      <trkpt lat="42.465540" lon="-5.948730">
        <ele>864.023</ele>
        <time>2020-04-02T12:38:56Z</time>
      </trkpt>
      <trkpt lat="42.465560" lon="-5.949340">
        <ele>863.015</ele>
        <time>2020-04-02T12:39:16Z</time>
      </trkpt>
      <trkpt lat="42.465280" lon="-5.950310">
        <ele>863.007</ele>
        <time>2020-04-02T12:39:36Z</time>
      </trkpt>
      <trkpt lat="42.465180" lon="-5.950600">
        <ele>864.096</ele>
        <time>2020-04-02T12:39:56Z</time>
      </trkpt>
      <trkpt lat="42.465160" lon="-5.953630">
        <ele>873.073</ele>
        <time>2020-04-02T12:40:16Z</time>
      </trkpt>
      <trkpt lat="42.465260" lon="-5.954310">
        <ele>874.093</ele>
        <time>2020-04-02T12:40:36Z</time>
      </trkpt>
      <trkpt lat="42.465500" lon="-5.954930">
        <ele>877.086</ele>
        <time>2020-04-02T12:40:56Z</time>
      </trkpt>
      <trkpt lat="42.465570" lon="-5.955180">
        <ele>878.021</ele>
        <time>2020-04-02T12:41:16Z</time>
      </trkpt>
      <trkpt lat="42.466490" lon="-5.959480">
        <ele>890.094</ele>
        <time>2020-04-02T12:41:36Z</time>
      </trkpt>
      <trkpt lat="42.466620" lon="-5.960280">
        <ele>893.045</ele>
        <time>2020-04-02T12:41:56Z</time>
      </trkpt>
      <trkpt lat="42.466730" lon="-5.961150">
        <ele>897.017</ele>
        <time>2020-04-02T12:42:16Z</time>
      </trkpt>
      <trkpt lat="42.466810" lon="-5.961720">
        <ele>900.087</ele>
        <time>2020-04-02T12:42:36Z</time>
      </trkpt>
      <trkpt lat="42.466930" lon="-5.962190">
        <ele>902.015</ele>
        <time>2020-04-02T12:42:56Z</time>
      </trkpt>
      <trkpt lat="42.467110" lon="-5.962540">
        <ele>904.007</ele>
        <time>2020-04-02T12:43:16Z</time>
      </trkpt>
      <trkpt lat="42.467370" lon="-5.963800">
        <ele>910.034</ele>
        <time>2020-04-02T12:43:36Z</time>
      </trkpt>
      <trkpt lat="42.467210" lon="-5.964690">
        <ele>912.021</ele>
        <time>2020-04-02T12:43:56Z</time>
      </trkpt>
      <trkpt lat="42.467320" lon="-5.966050">
        <ele>914.061</ele>
        <time>2020-04-02T12:44:16Z</time>
      </trkpt>
      <trkpt lat="42.467600" lon="-5.966960">
        <ele>915.014</ele>
        <time>2020-04-02T12:44:36Z</time>
      </trkpt>
      <trkpt lat="42.467440" lon="-5.967250">
        <ele>915.099</ele>
        <time>2020-04-02T12:44:56Z</time>
      </trkpt>
      <trkpt lat="42.467190" lon="-5.969280">
        <ele>909.082</ele>
        <time>2020-04-02T12:45:16Z</time>
      </trkpt>
      <trkpt lat="42.466980" lon="-5.969670">
        <ele>908.033</ele>
        <time>2020-04-02T12:45:36Z</time>
      </trkpt>
      <trkpt lat="42.467120" lon="-5.969900">
        <ele>908.014</ele>
        <time>2020-04-02T12:45:56Z</time>
      </trkpt>
      <trkpt lat="42.467040" lon="-5.970410">
        <ele>909.054</ele>
        <time>2020-04-02T12:46:16Z</time>
      </trkpt>
      <trkpt lat="42.466560" lon="-5.971460">
        <ele>915.009</ele>
        <time>2020-04-02T12:46:36Z</time>
      </trkpt>
      <trkpt lat="42.466340" lon="-5.971660">
        <ele>918.007</ele>
        <time>2020-04-02T12:46:56Z</time>
      </trkpt>
      <trkpt lat="42.466090" lon="-5.972420">
        <ele>918.034</ele>
        <time>2020-04-02T12:47:16Z</time>
      </trkpt>
      <trkpt lat="42.464710" lon="-5.974970">
        <ele>914.061</ele>
        <time>2020-04-02T12:47:36Z</time>
      </trkpt>
      <trkpt lat="42.463600" lon="-5.975970">
        <ele>892.061</ele>
        <time>2020-04-02T12:47:56Z</time>
      </trkpt>
      <trkpt lat="42.462960" lon="-5.977770">
        <ele>887.034</ele>
        <time>2020-04-02T12:48:16Z</time>
      </trkpt>
      <trkpt lat="42.461770" lon="-5.980030">
        <ele>902.019</ele>
        <time>2020-04-02T12:48:36Z</time>
      </trkpt>
      <trkpt lat="42.460830" lon="-5.981740">
        <ele>909.042</ele>
        <time>2020-04-02T12:48:56Z</time>
      </trkpt>
      <trkpt lat="42.459960" lon="-5.985490">
        <ele>913.013</ele>
        <time>2020-04-02T12:49:16Z</time>
      </trkpt>
      <trkpt lat="42.458910" lon="-5.991750">
        <ele>914.055</ele>
        <time>2020-04-02T12:49:36Z</time>
      </trkpt>
      <trkpt lat="42.458860" lon="-5.993260">
        <ele>917.007</ele>
        <time>2020-04-02T12:49:56Z</time>
      </trkpt>
      <trkpt lat="42.459030" lon="-5.995560">
        <ele>897.017</ele>
        <time>2020-04-02T12:50:16Z</time>
      </trkpt>
      <trkpt lat="42.459240" lon="-5.997600">
        <ele>892.007</ele>
        <time>2020-04-02T12:50:36Z</time>
      </trkpt>
      <trkpt lat="42.458560" lon="-5.998880">
        <ele>881.088</ele>
        <time>2020-04-02T12:50:56Z</time>
      </trkpt>
      <trkpt lat="42.458760" lon="-5.999340">
        <ele>875.075</ele>
        <time>2020-04-02T12:51:16Z</time>
      </trkpt>
      <trkpt lat="42.458830" lon="-6.000440">
        <ele>876.075</ele>
        <time>2020-04-02T12:51:36Z</time>
      </trkpt>
      <trkpt lat="42.458590" lon="-6.001630">
        <ele>877.038</ele>
        <time>2020-04-02T12:51:56Z</time>
      </trkpt>
      <trkpt lat="42.458650" lon="-6.001940">
        <ele>877.053</ele>
        <time>2020-04-02T12:52:16Z</time>
      </trkpt>
      <trkpt lat="42.458060" lon="-6.003930">
        <ele>868.026</ele>
        <time>2020-04-02T12:52:36Z</time>
      </trkpt>
      <trkpt lat="42.457750" lon="-6.005070">
        <ele>864.047</ele>
        <time>2020-04-02T12:52:56Z</time>
      </trkpt>
      <trkpt lat="42.456580" lon="-6.007580">
        <ele>861.023</ele>
        <time>2020-04-02T12:53:16Z</time>
      </trkpt>
      <trkpt lat="42.454300" lon="-6.010720">
        <ele>857.083</ele>
        <time>2020-04-02T12:53:36Z</time>
      </trkpt>
      <trkpt lat="42.454180" lon="-6.014820">
        <ele>849.011</ele>
        <time>2020-04-02T12:53:56Z</time>
      </trkpt>
      <trkpt lat="42.454300" lon="-6.015840">
        <ele>847.007</ele>
        <time>2020-04-02T12:54:16Z</time>
      </trkpt>
      <trkpt lat="42.454550" lon="-6.021290">
        <ele>836.065</ele>
        <time>2020-04-02T12:54:36Z</time>
      </trkpt>
      <trkpt lat="42.454640" lon="-6.022520">
        <ele>838.032</ele>
        <time>2020-04-02T12:54:56Z</time>
      </trkpt>
      <trkpt lat="42.453830" lon="-6.023450">
        <ele>837.032</ele>
        <time>2020-04-02T12:55:16Z</time>
      </trkpt>
      <trkpt lat="42.453850" lon="-6.025500">
        <ele>835.035</ele>
        <time>2020-04-02T12:55:36Z</time>
      </trkpt>
      <trkpt lat="42.454310" lon="-6.025530">
        <ele>838.060</ele>
        <time>2020-04-02T12:55:56Z</time>
      </trkpt>
      <trkpt lat="42.454730" lon="-6.032310">
        <ele>840.073</ele>
        <time>2020-04-02T12:56:16Z</time>
      </trkpt>
      <trkpt lat="42.455280" lon="-6.037780">
        <ele>839.064</ele>
        <time>2020-04-02T12:56:36Z</time>
      </trkpt>
      <trkpt lat="42.455940" lon="-6.042640">
        <ele>841.049</ele>
        <time>2020-04-02T12:56:56Z</time>
      </trkpt>
      <trkpt lat="42.455770" lon="-6.043360">
        <ele>844.002</ele>
        <time>2020-04-02T12:57:16Z</time>
      </trkpt>
      <trkpt lat="42.455910" lon="-6.043910">
        <ele>844.022</ele>
        <time>2020-04-02T12:57:36Z</time>
      </trkpt>
      <trkpt lat="42.455500" lon="-6.044200">
        <ele>844.007</ele>
        <time>2020-04-02T12:57:56Z</time>
      </trkpt>
      <trkpt lat="42.455240" lon="-6.044430">
        <ele>842.017</ele>
        <time>2020-04-02T12:58:16Z</time>
      </trkpt>
      <trkpt lat="42.454660" lon="-6.044430">
        <ele>840.084</ele>
        <time>2020-04-02T12:58:36Z</time>
      </trkpt>
      <trkpt lat="42.454620" lon="-6.044590">
        <ele>840.044</ele>
        <time>2020-04-02T12:58:56Z</time>
      </trkpt>
      <trkpt lat="42.454430" lon="-6.044410">
        <ele>839.067</ele>
        <time>2020-04-02T12:59:16Z</time>
      </trkpt>
      <trkpt lat="42.454570" lon="-6.044560">
        <ele>839.072</ele>
        <time>2020-04-02T12:59:36Z</time>
      </trkpt>
      <trkpt lat="42.454440" lon="-6.044720">
        <ele>839.065</ele>
        <time>2020-04-02T12:59:56Z</time>
      </trkpt>
      <trkpt lat="42.454590" lon="-6.044860">
        <ele>840.096</ele>
        <time>2020-04-02T13:00:16Z</time>
      </trkpt>
      <trkpt lat="42.454340" lon="-6.044600">
        <ele>839.026</ele>
        <time>2020-04-02T13:00:36Z</time>
      </trkpt>
      <trkpt lat="42.454700" lon="-6.045020">
        <ele>840.047</ele>
        <time>2020-04-02T13:00:56Z</time>
      </trkpt>
      <trkpt lat="42.454790" lon="-6.046770">
        <ele>841.011</ele>
        <time>2020-04-02T13:01:16Z</time>
      </trkpt>
      <trkpt lat="42.454780" lon="-6.047810">
        <ele>842.007</ele>
        <time>2020-04-02T13:01:36Z</time>
      </trkpt>
      <trkpt lat="42.454720" lon="-6.048120">
        <ele>842.095</ele>
        <time>2020-04-02T13:01:56Z</time>
      </trkpt>
      <trkpt lat="42.454610" lon="-6.048370">
        <ele>842.082</ele>
        <time>2020-04-02T13:02:16Z</time>
      </trkpt>
      <trkpt lat="42.454300" lon="-6.048430">
        <ele>842.092</ele>
        <time>2020-04-02T13:02:36Z</time>
      </trkpt>
      <trkpt lat="42.453930" lon="-6.048970">
        <ele>843.015</ele>
        <time>2020-04-02T13:02:56Z</time>
      </trkpt>
      <trkpt lat="42.453520" lon="-6.050360">
        <ele>855.030</ele>
        <time>2020-04-02T13:03:16Z</time>
      </trkpt>
      <trkpt lat="42.452700" lon="-6.050240">
        <ele>855.093</ele>
        <time>2020-04-02T13:03:36Z</time>
      </trkpt>
      <trkpt lat="42.453190" lon="-6.050640">
        <ele>859.094</ele>
        <time>2020-04-02T13:03:56Z</time>
      </trkpt>
      <trkpt lat="42.453030" lon="-6.051360">
        <ele>866.059</ele>
        <time>2020-04-02T13:04:16Z</time>
      </trkpt>
      <trkpt lat="42.453540" lon="-6.051770">
        <ele>868.003</ele>
        <time>2020-04-02T13:04:36Z</time>
      </trkpt>
      <trkpt lat="42.454090" lon="-6.052400">
        <ele>871.023</ele>
        <time>2020-04-02T13:04:56Z</time>
      </trkpt>
      <trkpt lat="42.454620" lon="-6.053130">
        <ele>873.007</ele>
        <time>2020-04-02T13:05:16Z</time>
      </trkpt>
      <trkpt lat="42.454810" lon="-6.053420">
        <ele>874.038</ele>
        <time>2020-04-02T13:05:36Z</time>
      </trkpt>
      <trkpt lat="42.455680" lon="-6.054010">
        <ele>875.095</ele>
        <time>2020-04-02T13:05:56Z</time>
      </trkpt>
      <trkpt lat="42.456140" lon="-6.054310">
        <ele>877.045</ele>
        <time>2020-04-02T13:06:16Z</time>
      </trkpt>
      <trkpt lat="42.456410" lon="-6.053610">
        <ele>874.088</ele>
        <time>2020-04-02T13:06:36Z</time>
      </trkpt>
      <trkpt lat="42.456870" lon="-6.054210">
        <ele>871.083</ele>
        <time>2020-04-02T13:06:56Z</time>
      </trkpt>
      <trkpt lat="42.457310" lon="-6.055380">
        <ele>872.066</ele>
        <time>2020-04-02T13:07:16Z</time>
      </trkpt>
      <trkpt lat="42.457270" lon="-6.055880">
        <ele>874.087</ele>
        <time>2020-04-02T13:07:36Z</time>
      </trkpt>
      <trkpt lat="42.457400" lon="-6.056530">
        <ele>878.021</ele>
        <time>2020-04-02T13:07:56Z</time>
      </trkpt>
      <trkpt lat="42.457530" lon="-6.056800">
        <ele>878.041</ele>
        <time>2020-04-02T13:08:16Z</time>
      </trkpt>
      <trkpt lat="42.457370" lon="-6.056940">
        <ele>879.005</ele>
        <time>2020-04-02T13:08:36Z</time>
      </trkpt>
      <trkpt lat="42.457560" lon="-6.057430">
        <ele>881.007</ele>
        <time>2020-04-02T13:08:56Z</time>
      </trkpt>
      <trkpt lat="42.456820" lon="-6.058900">
        <ele>879.075</ele>
        <time>2020-04-02T13:09:16Z</time>
      </trkpt>
      <trkpt lat="42.457070" lon="-6.059440">
        <ele>878.012</ele>
        <time>2020-04-02T13:09:36Z</time>
      </trkpt>
      <trkpt lat="42.458800" lon="-6.062270">
        <ele>879.092</ele>
        <time>2020-04-02T13:09:56Z</time>
      </trkpt>
      <trkpt lat="42.458920" lon="-6.063010">
        <ele>879.075</ele>
        <time>2020-04-02T13:10:16Z</time>
      </trkpt>
      <trkpt lat="42.458610" lon="-6.064710">
        <ele>878.020</ele>
        <time>2020-04-02T13:10:36Z</time>
      </trkpt>
      <trkpt lat="42.458730" lon="-6.068460">
        <ele>867.023</ele>
        <time>2020-04-02T13:10:56Z</time>
      </trkpt>
      <trkpt lat="42.459400" lon="-6.073460">
        <ele>860.054</ele>
        <time>2020-04-02T13:11:16Z</time>
      </trkpt>
      <trkpt lat="42.459180" lon="-6.076430">
        <ele>862.029</ele>
        <time>2020-04-02T13:11:36Z</time>
      </trkpt>
      <trkpt lat="42.459290" lon="-6.080710">
        <ele>865.000</ele>
        <time>2020-04-02T13:11:56Z</time>
      </trkpt>
      <trkpt lat="42.461590" lon="-6.091510">
        <ele>872.020</ele>
        <time>2020-04-02T13:12:16Z</time>
      </trkpt>
      <trkpt lat="42.461760" lon="-6.096300">
        <ele>873.007</ele>
        <time>2020-04-02T13:12:36Z</time>
      </trkpt>
      <trkpt lat="42.460420" lon="-6.098810">
        <ele>874.065</ele>
        <time>2020-04-02T13:12:56Z</time>
      </trkpt>
      <trkpt lat="42.460350" lon="-6.102140">
        <ele>878.082</ele>
        <time>2020-04-02T13:13:16Z</time>
      </trkpt>
      <trkpt lat="42.459640" lon="-6.104830">
        <ele>883.062</ele>
        <time>2020-04-02T13:13:36Z</time>
      </trkpt>
      <trkpt lat="42.457190" lon="-6.119340">
        <ele>905.045</ele>
        <time>2020-04-02T13:13:56Z</time>
      </trkpt>
      <trkpt lat="42.455520" lon="-6.126930">
        <ele>918.050</ele>
        <time>2020-04-02T13:14:16Z</time>
      </trkpt>
      <trkpt lat="42.454890" lon="-6.132260">
        <ele>928.083</ele>
        <time>2020-04-02T13:14:36Z</time>
      </trkpt>
      <trkpt lat="42.455060" lon="-6.142240">
        <ele>958.084</ele>
        <time>2020-04-02T13:14:56Z</time>
      </trkpt>
      <trkpt lat="42.454910" lon="-6.145010">
        <ele>966.035</ele>
        <time>2020-04-02T13:15:16Z</time>
      </trkpt>
      <trkpt lat="42.455400" lon="-6.148370">
        <ele>970.086</ele>
        <time>2020-04-02T13:15:36Z</time>
      </trkpt>
      <trkpt lat="42.455180" lon="-6.155810">
        <ele>979.014</ele>
        <time>2020-04-02T13:15:56Z</time>
      </trkpt>
      <trkpt lat="42.455040" lon="-6.156160">
        <ele>981.007</ele>
        <time>2020-04-02T13:16:16Z</time>
      </trkpt>
      <trkpt lat="42.455600" lon="-6.162290">
        <ele>985.026</ele>
        <time>2020-04-02T13:16:36Z</time>
      </trkpt>
      <trkpt lat="42.459460" lon="-6.183310">
        <ele>1000.023</ele>
        <time>2020-04-02T13:16:56Z</time>
      </trkpt>
      <trkpt lat="42.460040" lon="-6.184760">
        <ele>1001.033</ele>
        <time>2020-04-02T13:17:16Z</time>
      </trkpt>
      <trkpt lat="42.461130" lon="-6.192440">
        <ele>1010.086</ele>
        <time>2020-04-02T13:17:36Z</time>
      </trkpt>
      <trkpt lat="42.461130" lon="-6.198650">
        <ele>1019.091</ele>
        <time>2020-04-02T13:17:56Z</time>
      </trkpt>
      <trkpt lat="42.462860" lon="-6.210700">
        <ele>1012.084</ele>
        <time>2020-04-02T13:18:16Z</time>
      </trkpt>
      <trkpt lat="42.463210" lon="-6.215190">
        <ele>1015.015</ele>
        <time>2020-04-02T13:18:36Z</time>
      </trkpt>
      <trkpt lat="42.463720" lon="-6.217200">
        <ele>1014.082</ele>
        <time>2020-04-02T13:18:56Z</time>
      </trkpt>
      <trkpt lat="42.464550" lon="-6.218360">
        <ele>1016.043</ele>
        <time>2020-04-02T13:19:16Z</time>
      </trkpt>
      <trkpt lat="42.464060" lon="-6.222300">
        <ele>1025.017</ele>
        <time>2020-04-02T13:19:36Z</time>
      </trkpt>
      <trkpt lat="42.464450" lon="-6.225380">
        <ele>1032.007</ele>
        <time>2020-04-02T13:19:56Z</time>
      </trkpt>
      <trkpt lat="42.474220" lon="-6.252640">
        <ele>1066.071</ele>
        <time>2020-04-02T13:20:16Z</time>
      </trkpt>
      <trkpt lat="42.474160" lon="-6.255440">
        <ele>1075.018</ele>
        <time>2020-04-02T13:20:36Z</time>
      </trkpt>
      <trkpt lat="42.477710" lon="-6.261110">
        <ele>1106.018</ele>
        <time>2020-04-02T13:20:56Z</time>
      </trkpt>
      <trkpt lat="42.479160" lon="-6.270980">
        <ele>1108.041</ele>
        <time>2020-04-02T13:21:16Z</time>
      </trkpt>
      <trkpt lat="42.478850" lon="-6.272700">
        <ele>1109.056</ele>
        <time>2020-04-02T13:21:36Z</time>
      </trkpt>
      <trkpt lat="42.480400" lon="-6.279070">
        <ele>1124.079</ele>
        <time>2020-04-02T13:21:56Z</time>
      </trkpt>
      <trkpt lat="42.480650" lon="-6.284400">
        <ele>1148.020</ele>
        <time>2020-04-02T13:22:16Z</time>
      </trkpt>
      <trkpt lat="42.482370" lon="-6.284970">
        <ele>1160.093</ele>
        <time>2020-04-02T13:22:36Z</time>
      </trkpt>
      <trkpt lat="42.482610" lon="-6.286840">
        <ele>1160.065</ele>
        <time>2020-04-02T13:22:56Z</time>
      </trkpt>
      <trkpt lat="42.483000" lon="-6.289290">
        <ele>1171.021</ele>
        <time>2020-04-02T13:23:16Z</time>
      </trkpt>
      <trkpt lat="42.482600" lon="-6.291830">
        <ele>1178.007</ele>
        <time>2020-04-02T13:23:36Z</time>
      </trkpt>
      <trkpt lat="42.482780" lon="-6.293810">
        <ele>1182.012</ele>
        <time>2020-04-02T13:23:56Z</time>
      </trkpt>
      <trkpt lat="42.483130" lon="-6.295810">
        <ele>1192.049</ele>
        <time>2020-04-02T13:24:16Z</time>
      </trkpt>
      <trkpt lat="42.483100" lon="-6.296460">
        <ele>1194.059</ele>
        <time>2020-04-02T13:24:36Z</time>
      </trkpt>
      <trkpt lat="42.483610" lon="-6.298860">
        <ele>1198.032</ele>
        <time>2020-04-02T13:24:56Z</time>
      </trkpt>
      <trkpt lat="42.483710" lon="-6.299330">
        <ele>1198.067</ele>
        <time>2020-04-02T13:25:16Z</time>
      </trkpt>
      <trkpt lat="42.484130" lon="-6.299990">
        <ele>1205.040</ele>
        <time>2020-04-02T13:25:36Z</time>
      </trkpt>
      <trkpt lat="42.484750" lon="-6.301250">
        <ele>1204.091</ele>
        <time>2020-04-02T13:25:56Z</time>
      </trkpt>
      <trkpt lat="42.485370" lon="-6.302940">
        <ele>1208.094</ele>
        <time>2020-04-02T13:26:16Z</time>
      </trkpt>
      <trkpt lat="42.486230" lon="-6.305620">
        <ele>1220.057</ele>
        <time>2020-04-02T13:26:36Z</time>
      </trkpt>
      <trkpt lat="42.486720" lon="-6.306580">
        <ele>1226.022</ele>
        <time>2020-04-02T13:26:56Z</time>
      </trkpt>
      <trkpt lat="42.486660" lon="-6.307490">
        <ele>1232.007</ele>
        <time>2020-04-02T13:27:16Z</time>
      </trkpt>
      <trkpt lat="42.486700" lon="-6.308010">
        <ele>1240.082</ele>
        <time>2020-04-02T13:27:36Z</time>
      </trkpt>
      <trkpt lat="42.486460" lon="-6.308560">
        <ele>1247.039</ele>
        <time>2020-04-02T13:27:56Z</time>
      </trkpt>
      <trkpt lat="42.486090" lon="-6.309160">
        <ele>1253.099</ele>
        <time>2020-04-02T13:28:16Z</time>
      </trkpt>
      <trkpt lat="42.486240" lon="-6.309460">
        <ele>1257.052</ele>
        <time>2020-04-02T13:28:36Z</time>
      </trkpt>
      <trkpt lat="42.486150" lon="-6.310460">
        <ele>1262.017</ele>
        <time>2020-04-02T13:28:56Z</time>
      </trkpt>
      <trkpt lat="42.486350" lon="-6.311430">
        <ele>1270.040</ele>
        <time>2020-04-02T13:29:16Z</time>
      </trkpt>
      <trkpt lat="42.487080" lon="-6.312680">
        <ele>1275.031</ele>
        <time>2020-04-02T13:29:36Z</time>
      </trkpt>
      <trkpt lat="42.488510" lon="-6.314120">
        <ele>1294.017</ele>
        <time>2020-04-02T13:29:56Z</time>
      </trkpt>
      <trkpt lat="42.488120" lon="-6.315640">
        <ele>1290.087</ele>
        <time>2020-04-02T13:30:16Z</time>
      </trkpt>
      <trkpt lat="42.488400" lon="-6.316990">
        <ele>1294.015</ele>
        <time>2020-04-02T13:30:36Z</time>
      </trkpt>
      <trkpt lat="42.489030" lon="-6.318090">
        <ele>1304.007</ele>
        <time>2020-04-02T13:30:56Z</time>
      </trkpt>
      <trkpt lat="42.489930" lon="-6.319030">
        <ele>1320.074</ele>
        <time>2020-04-02T13:31:16Z</time>
      </trkpt>
      <trkpt lat="42.489960" lon="-6.319630">
        <ele>1322.081</ele>
        <time>2020-04-02T13:31:36Z</time>
      </trkpt>
      <trkpt lat="42.489670" lon="-6.320310">
        <ele>1318.021</ele>
        <time>2020-04-02T13:31:56Z</time>
      </trkpt>
      <trkpt lat="42.489650" lon="-6.321010">
        <ele>1320.024</ele>
        <time>2020-04-02T13:32:16Z</time>
      </trkpt>
      <trkpt lat="42.490100" lon="-6.322060">
        <ele>1326.069</ele>
        <time>2020-04-02T13:32:36Z</time>
      </trkpt>
      <trkpt lat="42.491050" lon="-6.323060">
        <ele>1345.032</ele>
        <time>2020-04-02T13:32:56Z</time>
      </trkpt>
      <trkpt lat="42.491530" lon="-6.324070">
        <ele>1351.093</ele>
        <time>2020-04-02T13:33:16Z</time>
      </trkpt>
      <trkpt lat="42.491570" lon="-6.326280">
        <ele>1354.048</ele>
        <time>2020-04-02T13:33:36Z</time>
      </trkpt>
      <trkpt lat="42.491610" lon="-6.326810">
        <ele>1363.061</ele>
        <time>2020-04-02T13:33:56Z</time>
      </trkpt>
      <trkpt lat="42.491510" lon="-6.327150">
        <ele>1366.017</ele>
        <time>2020-04-02T13:34:16Z</time>
      </trkpt>
      <trkpt lat="42.491240" lon="-6.327770">
        <ele>1374.007</ele>
        <time>2020-04-02T13:34:36Z</time>
      </trkpt>
      <trkpt lat="42.490280" lon="-6.328310">
        <ele>1376.087</ele>
        <time>2020-04-02T13:34:56Z</time>
      </trkpt>
      <trkpt lat="42.489880" lon="-6.329240">
        <ele>1381.094</ele>
        <time>2020-04-02T13:35:16Z</time>
      </trkpt>
      <trkpt lat="42.489700" lon="-6.330440">
        <ele>1380.094</ele>
        <time>2020-04-02T13:35:36Z</time>
      </trkpt>
      <trkpt lat="42.491670" lon="-6.334370">
        <ele>1392.077</ele>
        <time>2020-04-02T13:35:56Z</time>
      </trkpt>
      <trkpt lat="42.490670" lon="-6.339570">
        <ele>1409.022</ele>
        <time>2020-04-02T13:36:16Z</time>
      </trkpt>
      <trkpt lat="42.490850" lon="-6.341040">
        <ele>1418.095</ele>
        <time>2020-04-02T13:36:36Z</time>
      </trkpt>
      <trkpt lat="42.490920" lon="-6.341850">
        <ele>1421.086</ele>
        <time>2020-04-02T13:36:56Z</time>
      </trkpt>
      <trkpt lat="42.491290" lon="-6.342760">
        <ele>1427.023</ele>
        <time>2020-04-02T13:37:16Z</time>
      </trkpt>
      <trkpt lat="42.491710" lon="-6.343150">
        <ele>1432.083</ele>
        <time>2020-04-02T13:37:36Z</time>
      </trkpt>
      <trkpt lat="42.492550" lon="-6.345440">
        <ele>1442.011</ele>
        <time>2020-04-02T13:37:56Z</time>
      </trkpt>
      <trkpt lat="42.492690" lon="-6.346220">
        <ele>1447.007</ele>
        <time>2020-04-02T13:38:16Z</time>
      </trkpt>
      <trkpt lat="42.492340" lon="-6.348160">
        <ele>1443.085</ele>
        <time>2020-04-02T13:38:36Z</time>
      </trkpt>
      <trkpt lat="42.492110" lon="-6.348590">
        <ele>1448.042</ele>
        <time>2020-04-02T13:38:56Z</time>
      </trkpt>
      <trkpt lat="42.492070" lon="-6.349200">
        <ele>1450.062</ele>
        <time>2020-04-02T13:39:16Z</time>
      </trkpt>
      <trkpt lat="42.491820" lon="-6.350160">
        <ele>1468.075</ele>
        <time>2020-04-02T13:39:36Z</time>
      </trkpt>
      <trkpt lat="42.491590" lon="-6.350310">
        <ele>1464.060</ele>
        <time>2020-04-02T13:39:56Z</time>
      </trkpt>
      <trkpt lat="42.491310" lon="-6.350170">
        <ele>1460.093</ele>
        <time>2020-04-02T13:40:16Z</time>
      </trkpt>
      <trkpt lat="42.490560" lon="-6.350210">
        <ele>1458.074</ele>
        <time>2020-04-02T13:40:36Z</time>
      </trkpt>
      <trkpt lat="42.490050" lon="-6.350490">
        <ele>1463.055</ele>
        <time>2020-04-02T13:40:56Z</time>
      </trkpt>
      <trkpt lat="42.489830" lon="-6.350920">
        <ele>1464.007</ele>
        <time>2020-04-02T13:41:16Z</time>
      </trkpt>
      <trkpt lat="42.489840" lon="-6.351550">
        <ele>1467.017</ele>
        <time>2020-04-02T13:41:36Z</time>
      </trkpt>
      <trkpt lat="42.490330" lon="-6.352430">
        <ele>1474.007</ele>
        <time>2020-04-02T13:41:56Z</time>
      </trkpt>
      <trkpt lat="42.491170" lon="-6.353040">
        <ele>1485.098</ele>
        <time>2020-04-02T13:42:16Z</time>
      </trkpt>
      <trkpt lat="42.491620" lon="-6.354160">
        <ele>1488.085</ele>
        <time>2020-04-02T13:42:36Z</time>
      </trkpt>
      <trkpt lat="42.491580" lon="-6.354520">
        <ele>1488.065</ele>
        <time>2020-04-02T13:42:56Z</time>
      </trkpt>
      <trkpt lat="42.491660" lon="-6.354850">
        <ele>1488.078</ele>
        <time>2020-04-02T13:43:16Z</time>
      </trkpt>
      <trkpt lat="42.491200" lon="-6.355250">
        <ele>1482.083</ele>
        <time>2020-04-02T13:43:36Z</time>
      </trkpt>
      <trkpt lat="42.490820" lon="-6.355830">
        <ele>1482.076</ele>
        <time>2020-04-02T13:43:56Z</time>
      </trkpt>
      <trkpt lat="42.490730" lon="-6.357420">
        <ele>1495.077</ele>
        <time>2020-04-02T13:44:16Z</time>
      </trkpt>
      <trkpt lat="42.490610" lon="-6.358200">
        <ele>1498.068</ele>
        <time>2020-04-02T13:44:36Z</time>
      </trkpt>
      <trkpt lat="42.490320" lon="-6.358840">
        <ele>1498.042</ele>
        <time>2020-04-02T13:44:56Z</time>
      </trkpt>
      <trkpt lat="42.489910" lon="-6.359810">
        <ele>1501.026</ele>
        <time>2020-04-02T13:45:16Z</time>
      </trkpt>
      <trkpt lat="42.488900" lon="-6.361430">
        <ele>1503.007</ele>
        <time>2020-04-02T13:45:36Z</time>
      </trkpt>
      <trkpt lat="42.488650" lon="-6.362000">
        <ele>1498.099</ele>
        <time>2020-04-02T13:45:56Z</time>
      </trkpt>
      <trkpt lat="42.488610" lon="-6.362930">
        <ele>1493.036</ele>
        <time>2020-04-02T13:46:16Z</time>
      </trkpt>
      <trkpt lat="42.488620" lon="-6.363540">
        <ele>1490.036</ele>
        <time>2020-04-02T13:46:36Z</time>
      </trkpt>
      <trkpt lat="42.489180" lon="-6.365430">
        <ele>1485.029</ele>
        <time>2020-04-02T13:46:56Z</time>
      </trkpt>
      <trkpt lat="42.489280" lon="-6.366650">
        <ele>1480.074</ele>
        <time>2020-04-02T13:47:16Z</time>
      </trkpt>
      <trkpt lat="42.489090" lon="-6.367750">
        <ele>1479.087</ele>
        <time>2020-04-02T13:47:36Z</time>
      </trkpt>
      <trkpt lat="42.489120" lon="-6.370010">
        <ele>1476.018</ele>
        <time>2020-04-02T13:47:56Z</time>
      </trkpt>
      <trkpt lat="42.490050" lon="-6.372580">
        <ele>1480.019</ele>
        <time>2020-04-02T13:48:16Z</time>
      </trkpt>
      <trkpt lat="42.489880" lon="-6.373490">
        <ele>1481.009</ele>
        <time>2020-04-02T13:48:36Z</time>
      </trkpt>
      <trkpt lat="42.489130" lon="-6.373970">
        <ele>1483.019</ele>
        <time>2020-04-02T13:48:56Z</time>
      </trkpt>
      <trkpt lat="42.488660" lon="-6.374860">
        <ele>1479.007</ele>
        <time>2020-04-02T13:49:16Z</time>
      </trkpt>
      <trkpt lat="42.488400" lon="-6.375780">
        <ele>1470.034</ele>
        <time>2020-04-02T13:49:36Z</time>
      </trkpt>
      <trkpt lat="42.488530" lon="-6.377650">
        <ele>1458.021</ele>
        <time>2020-04-02T13:49:56Z</time>
      </trkpt>
      <trkpt lat="42.488220" lon="-6.378890">
        <ele>1457.061</ele>
        <time>2020-04-02T13:50:16Z</time>
      </trkpt>
      <trkpt lat="42.487560" lon="-6.380380">
        <ele>1464.034</ele>
        <time>2020-04-02T13:50:36Z</time>
      </trkpt>
      <trkpt lat="42.488350" lon="-6.384290">
        <ele>1448.069</ele>
        <time>2020-04-02T13:50:56Z</time>
      </trkpt>
      <trkpt lat="42.489270" lon="-6.385060">
        <ele>1443.092</ele>
        <time>2020-04-02T13:51:16Z</time>
      </trkpt>
      <trkpt lat="42.490320" lon="-6.386720">
        <ele>1437.093</ele>
        <time>2020-04-02T13:51:36Z</time>
      </trkpt>
      <trkpt lat="42.490540" lon="-6.387670">
        <ele>1441.068</ele>
        <time>2020-04-02T13:51:56Z</time>
      </trkpt>
      <trkpt lat="42.490310" lon="-6.388930">
        <ele>1435.042</ele>
        <time>2020-04-02T13:52:16Z</time>
      </trkpt>
      <trkpt lat="42.490120" lon="-6.389410">
        <ele>1431.026</ele>
        <time>2020-04-02T13:52:36Z</time>
      </trkpt>
      <trkpt lat="42.490150" lon="-6.389630">
        <ele>1439.007</ele>
        <time>2020-04-02T13:52:56Z</time>
      </trkpt>
      <trkpt lat="42.490030" lon="-6.389770">
        <ele>1433.099</ele>
        <time>2020-04-02T13:53:16Z</time>
      </trkpt>
      <trkpt lat="42.490120" lon="-6.390610">
        <ele>1435.066</ele>
        <time>2020-04-02T13:53:36Z</time>
      </trkpt>
      <trkpt lat="42.489960" lon="-6.391170">
        <ele>1435.056</ele>
        <time>2020-04-02T13:53:56Z</time>
      </trkpt>
      <trkpt lat="42.490150" lon="-6.391880">
        <ele>1432.089</ele>
        <time>2020-04-02T13:54:16Z</time>
      </trkpt>
      <trkpt lat="42.490810" lon="-6.392540">
        <ele>1436.094</ele>
        <time>2020-04-02T13:54:36Z</time>
      </trkpt>
      <trkpt lat="42.491260" lon="-6.393400">
        <ele>1448.097</ele>
        <time>2020-04-02T13:54:56Z</time>
      </trkpt>
      <trkpt lat="42.491030" lon="-6.393860">
        <ele>1443.068</ele>
        <time>2020-04-02T13:55:16Z</time>
      </trkpt>
      <trkpt lat="42.490790" lon="-6.394360">
        <ele>1435.023</ele>
        <time>2020-04-02T13:55:36Z</time>
      </trkpt>
      <trkpt lat="42.491130" lon="-6.396400">
        <ele>1433.083</ele>
        <time>2020-04-02T13:55:56Z</time>
      </trkpt>
      <trkpt lat="42.491440" lon="-6.397490">
        <ele>1437.011</ele>
        <time>2020-04-02T13:56:16Z</time>
      </trkpt>
      <trkpt lat="42.492090" lon="-6.398220">
        <ele>1461.007</ele>
        <time>2020-04-02T13:56:36Z</time>
      </trkpt>
      <trkpt lat="42.491700" lon="-6.399650">
        <ele>1449.065</ele>
        <time>2020-04-02T13:56:56Z</time>
      </trkpt>
      <trkpt lat="42.492460" lon="-6.402470">
        <ele>1464.042</ele>
        <time>2020-04-02T13:57:16Z</time>
      </trkpt>
      <trkpt lat="42.492490" lon="-6.403860">
        <ele>1465.032</ele>
        <time>2020-04-02T13:57:36Z</time>
      </trkpt>
      <trkpt lat="42.492660" lon="-6.403980">
        <ele>1467.085</ele>
        <time>2020-04-02T13:57:56Z</time>
      </trkpt>
      <trkpt lat="42.492340" lon="-6.405560">
        <ele>1479.020</ele>
        <time>2020-04-02T13:58:16Z</time>
      </trkpt>
      <trkpt lat="42.491030" lon="-6.405960">
        <ele>1484.013</ele>
        <time>2020-04-02T13:58:36Z</time>
      </trkpt>
      <trkpt lat="42.490850" lon="-6.405950">
        <ele>1484.044</ele>
        <time>2020-04-02T13:58:56Z</time>
      </trkpt>
      <trkpt lat="42.490510" lon="-6.406220">
        <ele>1489.047</ele>
        <time>2020-04-02T13:59:16Z</time>
      </trkpt>
      <trkpt lat="42.489840" lon="-6.406400">
        <ele>1484.029</ele>
        <time>2020-04-02T13:59:36Z</time>
      </trkpt>
      <trkpt lat="42.489600" lon="-6.406810">
        <ele>1489.021</ele>
        <time>2020-04-02T13:59:56Z</time>
      </trkpt>
      <trkpt lat="42.490490" lon="-6.410170">
        <ele>1497.007</ele>
        <time>2020-04-02T14:00:16Z</time>
      </trkpt>
      <trkpt lat="42.490440" lon="-6.411610">
        <ele>1500.097</ele>
        <time>2020-04-02T14:00:36Z</time>
      </trkpt>
      <trkpt lat="42.489690" lon="-6.413030">
        <ele>1502.084</ele>
        <time>2020-04-02T14:00:56Z</time>
      </trkpt>
      <trkpt lat="42.489650" lon="-6.415440">
        <ele>1501.054</ele>
        <time>2020-04-02T14:01:16Z</time>
      </trkpt>
      <trkpt lat="42.489420" lon="-6.418190">
        <ele>1507.047</ele>
        <time>2020-04-02T14:01:36Z</time>
      </trkpt>
      <trkpt lat="42.488560" lon="-6.419180">
        <ele>1507.052</ele>
        <time>2020-04-02T14:01:56Z</time>
      </trkpt>
      <trkpt lat="42.488290" lon="-6.420540">
        <ele>1506.045</ele>
        <time>2020-04-02T14:02:16Z</time>
      </trkpt>
      <trkpt lat="42.488600" lon="-6.421570">
        <ele>1498.056</ele>
        <time>2020-04-02T14:02:36Z</time>
      </trkpt>
      <trkpt lat="42.488930" lon="-6.423050">
        <ele>1492.045</ele>
        <time>2020-04-02T14:02:56Z</time>
      </trkpt>
      <trkpt lat="42.488810" lon="-6.423950">
        <ele>1488.047</ele>
        <time>2020-04-02T14:03:16Z</time>
      </trkpt>
      <trkpt lat="42.489770" lon="-6.426940">
        <ele>1457.011</ele>
        <time>2020-04-02T14:03:36Z</time>
      </trkpt>
      <trkpt lat="42.491020" lon="-6.428400">
        <ele>1435.007</ele>
        <time>2020-04-02T14:03:56Z</time>
      </trkpt>
      <trkpt lat="42.491850" lon="-6.431490">
        <ele>1416.017</ele>
        <time>2020-04-02T14:04:16Z</time>
      </trkpt>
      <trkpt lat="42.491780" lon="-6.432430">
        <ele>1406.034</ele>
        <time>2020-04-02T14:04:36Z</time>
      </trkpt>
      <trkpt lat="42.491180" lon="-6.437140">
        <ele>1395.084</ele>
        <time>2020-04-02T14:04:56Z</time>
      </trkpt>
      <trkpt lat="42.491220" lon="-6.437410">
        <ele>1394.027</ele>
        <time>2020-04-02T14:05:16Z</time>
      </trkpt>
      <trkpt lat="42.491040" lon="-6.437910">
        <ele>1393.012</ele>
        <time>2020-04-02T14:05:36Z</time>
      </trkpt>
      <trkpt lat="42.491050" lon="-6.438780">
        <ele>1384.055</ele>
        <time>2020-04-02T14:05:56Z</time>
      </trkpt>
      <trkpt lat="42.491230" lon="-6.439390">
        <ele>1384.016</ele>
        <time>2020-04-02T14:06:16Z</time>
      </trkpt>
      <trkpt lat="42.491680" lon="-6.440200">
        <ele>1391.062</ele>
        <time>2020-04-02T14:06:36Z</time>
      </trkpt>
      <trkpt lat="42.492450" lon="-6.440760">
        <ele>1371.083</ele>
        <time>2020-04-02T14:06:56Z</time>
      </trkpt>
      <trkpt lat="42.493230" lon="-6.441570">
        <ele>1344.011</ele>
        <time>2020-04-02T14:07:16Z</time>
      </trkpt>
      <trkpt lat="42.494310" lon="-6.441950">
        <ele>1333.007</ele>
        <time>2020-04-02T14:07:36Z</time>
      </trkpt>
      <trkpt lat="42.495010" lon="-6.442410">
        <ele>1317.029</ele>
        <time>2020-04-02T14:07:56Z</time>
      </trkpt>
      <trkpt lat="42.495290" lon="-6.442700">
        <ele>1313.036</ele>
        <time>2020-04-02T14:08:16Z</time>
      </trkpt>
      <trkpt lat="42.496480" lon="-6.445480">
        <ele>1277.056</ele>
        <time>2020-04-02T14:08:36Z</time>
      </trkpt>
      <trkpt lat="42.496920" lon="-6.449130">
        <ele>1248.039</ele>
        <time>2020-04-02T14:08:56Z</time>
      </trkpt>
      <trkpt lat="42.496890" lon="-6.450100">
        <ele>1242.044</ele>
        <time>2020-04-02T14:09:16Z</time>
      </trkpt>
      <trkpt lat="42.496890" lon="-6.450930">
        <ele>1236.047</ele>
        <time>2020-04-02T14:09:36Z</time>
      </trkpt>
      <trkpt lat="42.496910" lon="-6.451380">
        <ele>1231.038</ele>
        <time>2020-04-02T14:09:56Z</time>
      </trkpt>
      <trkpt lat="42.497110" lon="-6.451980">
        <ele>1228.095</ele>
        <time>2020-04-02T14:10:16Z</time>
      </trkpt>
      <trkpt lat="42.496980" lon="-6.453280">
        <ele>1202.049</ele>
        <time>2020-04-02T14:10:36Z</time>
      </trkpt>
      <trkpt lat="42.496940" lon="-6.454070">
        <ele>1184.023</ele>
        <time>2020-04-02T14:10:56Z</time>
      </trkpt>
      <trkpt lat="42.497190" lon="-6.454720">
        <ele>1171.007</ele>
        <time>2020-04-02T14:11:16Z</time>
      </trkpt>
      <trkpt lat="42.497450" lon="-6.455090">
        <ele>1163.082</ele>
        <time>2020-04-02T14:11:36Z</time>
      </trkpt>
      <trkpt lat="42.496870" lon="-6.455300">
        <ele>1154.079</ele>
        <time>2020-04-02T14:11:56Z</time>
      </trkpt>
      <trkpt lat="42.498130" lon="-6.456080">
        <ele>1141.099</ele>
        <time>2020-04-02T14:12:16Z</time>
      </trkpt>
      <trkpt lat="42.499030" lon="-6.457340">
        <ele>1136.052</ele>
        <time>2020-04-02T14:12:36Z</time>
      </trkpt>
      <trkpt lat="42.499320" lon="-6.458000">
        <ele>1135.037</ele>
        <time>2020-04-02T14:12:56Z</time>
      </trkpt>
      <trkpt lat="42.500100" lon="-6.458430">
        <ele>1131.020</ele>
        <time>2020-04-02T14:13:16Z</time>
      </trkpt>
      <trkpt lat="42.500560" lon="-6.458570">
        <ele>1127.031</ele>
        <time>2020-04-02T14:13:36Z</time>
      </trkpt>
      <trkpt lat="42.502060" lon="-6.459980">
        <ele>1105.039</ele>
        <time>2020-04-02T14:13:56Z</time>
      </trkpt>
      <trkpt lat="42.504870" lon="-6.463030">
        <ele>1094.001</ele>
        <time>2020-04-02T14:14:16Z</time>
      </trkpt>
      <trkpt lat="42.507210" lon="-6.467430">
        <ele>1059.021</ele>
        <time>2020-04-02T14:14:36Z</time>
      </trkpt>
      <trkpt lat="42.509960" lon="-6.468250">
        <ele>1020.007</ele>
        <time>2020-04-02T14:14:56Z</time>
      </trkpt>
      <trkpt lat="42.513180" lon="-6.472050">
        <ele>976.066</ele>
        <time>2020-04-02T14:15:16Z</time>
      </trkpt>
      <trkpt lat="42.513870" lon="-6.471830">
        <ele>981.033</ele>
        <time>2020-04-02T14:15:36Z</time>
      </trkpt>
      <trkpt lat="42.514990" lon="-6.472210">
        <ele>968.063</ele>
        <time>2020-04-02T14:15:56Z</time>
      </trkpt>
      <trkpt lat="42.515700" lon="-6.471990">
        <ele>959.096</ele>
        <time>2020-04-02T14:16:16Z</time>
      </trkpt>
      <trkpt lat="42.516440" lon="-6.472000">
        <ele>952.031</ele>
        <time>2020-04-02T14:16:36Z</time>
      </trkpt>
      <trkpt lat="42.517700" lon="-6.473720">
        <ele>945.074</ele>
        <time>2020-04-02T14:16:56Z</time>
      </trkpt>
      <trkpt lat="42.519450" lon="-6.477250">
        <ele>939.035</ele>
        <time>2020-04-02T14:17:16Z</time>
      </trkpt>
      <trkpt lat="42.520550" lon="-6.478510">
        <ele>924.079</ele>
        <time>2020-04-02T14:17:36Z</time>
      </trkpt>
      <trkpt lat="42.521450" lon="-6.478930">
        <ele>927.005</ele>
        <time>2020-04-02T14:17:56Z</time>
      </trkpt>
      <trkpt lat="42.522330" lon="-6.479770">
        <ele>916.025</ele>
        <time>2020-04-02T14:18:16Z</time>
      </trkpt>
      <trkpt lat="42.523560" lon="-6.482030">
        <ele>903.007</ele>
        <time>2020-04-02T14:18:36Z</time>
      </trkpt>
      <trkpt lat="42.523890" lon="-6.483030">
        <ele>897.080</ele>
        <time>2020-04-02T14:18:56Z</time>
      </trkpt>
      <trkpt lat="42.525280" lon="-6.485830">
        <ele>864.097</ele>
        <time>2020-04-02T14:19:16Z</time>
      </trkpt>
      <trkpt lat="42.525300" lon="-6.487260">
        <ele>851.087</ele>
        <time>2020-04-02T14:19:36Z</time>
      </trkpt>
      <trkpt lat="42.525370" lon="-6.487970">
        <ele>844.050</ele>
        <time>2020-04-02T14:19:56Z</time>
      </trkpt>
      <trkpt lat="42.525630" lon="-6.488880">
        <ele>847.065</ele>
        <time>2020-04-02T14:20:16Z</time>
      </trkpt>
      <trkpt lat="42.525750" lon="-6.489170">
        <ele>850.018</ele>
        <time>2020-04-02T14:20:36Z</time>
      </trkpt>
      <trkpt lat="42.525870" lon="-6.489740">
        <ele>849.059</ele>
        <time>2020-04-02T14:20:56Z</time>
      </trkpt>
      <trkpt lat="42.525760" lon="-6.490290">
        <ele>847.066</ele>
        <time>2020-04-02T14:21:16Z</time>
      </trkpt>
      <trkpt lat="42.525850" lon="-6.490870">
        <ele>846.029</ele>
        <time>2020-04-02T14:21:36Z</time>
      </trkpt>
      <trkpt lat="42.526190" lon="-6.491740">
        <ele>846.021</ele>
        <time>2020-04-02T14:21:56Z</time>
      </trkpt>
      <trkpt lat="42.526210" lon="-6.492270">
        <ele>843.007</ele>
        <time>2020-04-02T14:22:16Z</time>
      </trkpt>
      <trkpt lat="42.526260" lon="-6.492700">
        <ele>843.019</ele>
        <time>2020-04-02T14:22:36Z</time>
      </trkpt>
      <trkpt lat="42.526750" lon="-6.493600">
        <ele>839.066</ele>
        <time>2020-04-02T14:22:56Z</time>
      </trkpt>
      <trkpt lat="42.528120" lon="-6.493900">
        <ele>838.056</ele>
        <time>2020-04-02T14:23:16Z</time>
      </trkpt>
      <trkpt lat="42.528320" lon="-6.494280">
        <ele>836.029</ele>
        <time>2020-04-02T14:23:36Z</time>
      </trkpt>
      <trkpt lat="42.528520" lon="-6.494510">
        <ele>836.044</ele>
        <time>2020-04-02T14:23:56Z</time>
      </trkpt>
      <trkpt lat="42.528720" lon="-6.495590">
        <ele>832.017</ele>
        <time>2020-04-02T14:24:16Z</time>
      </trkpt>
      <trkpt lat="42.528690" lon="-6.496000">
        <ele>829.018</ele>
        <time>2020-04-02T14:24:36Z</time>
      </trkpt>
      <trkpt lat="42.528790" lon="-6.496320">
        <ele>831.049</ele>
        <time>2020-04-02T14:24:56Z</time>
      </trkpt>
      <trkpt lat="42.529210" lon="-6.497110">
        <ele>828.002</ele>
        <time>2020-04-02T14:25:16Z</time>
      </trkpt>
      <trkpt lat="42.529180" lon="-6.497930">
        <ele>822.022</ele>
        <time>2020-04-02T14:25:36Z</time>
      </trkpt>
      <trkpt lat="42.529510" lon="-6.498520">
        <ele>817.007</ele>
        <time>2020-04-02T14:25:56Z</time>
      </trkpt>
      <trkpt lat="42.529630" lon="-6.499070">
        <ele>809.097</ele>
        <time>2020-04-02T14:26:16Z</time>
      </trkpt>
      <trkpt lat="42.529920" lon="-6.499580">
        <ele>802.034</ele>
        <time>2020-04-02T14:26:36Z</time>
      </trkpt>
      <trkpt lat="42.529960" lon="-6.499770">
        <ele>800.064</ele>
        <time>2020-04-02T14:26:56Z</time>
      </trkpt>
      <trkpt lat="42.530180" lon="-6.499960">
        <ele>792.027</ele>
        <time>2020-04-02T14:27:16Z</time>
      </trkpt>
      <trkpt lat="42.530300" lon="-6.500490">
        <ele>788.032</ele>
        <time>2020-04-02T14:27:36Z</time>
      </trkpt>
      <trkpt lat="42.530310" lon="-6.501900">
        <ele>779.045</ele>
        <time>2020-04-02T14:27:56Z</time>
      </trkpt>
      <trkpt lat="42.530550" lon="-6.501410">
        <ele>780.036</ele>
        <time>2020-04-02T14:28:16Z</time>
      </trkpt>
      <trkpt lat="42.530610" lon="-6.502220">
        <ele>775.038</ele>
        <time>2020-04-02T14:28:36Z</time>
      </trkpt>
      <trkpt lat="42.530400" lon="-6.502680">
        <ele>771.070</ele>
        <time>2020-04-02T14:28:56Z</time>
      </trkpt>
      <trkpt lat="42.530420" lon="-6.503790">
        <ele>759.017</ele>
        <time>2020-04-02T14:29:16Z</time>
      </trkpt>
      <trkpt lat="42.530470" lon="-6.505170">
        <ele>745.007</ele>
        <time>2020-04-02T14:29:36Z</time>
      </trkpt>
      <trkpt lat="42.530440" lon="-6.505790">
        <ele>743.076</ele>
        <time>2020-04-02T14:29:56Z</time>
      </trkpt>
      <trkpt lat="42.530160" lon="-6.506590">
        <ele>738.073</ele>
        <time>2020-04-02T14:30:16Z</time>
      </trkpt>
      <trkpt lat="42.530060" lon="-6.507030">
        <ele>733.043</ele>
        <time>2020-04-02T14:30:36Z</time>
      </trkpt>
      <trkpt lat="42.530200" lon="-6.507920">
        <ele>728.036</ele>
        <time>2020-04-02T14:30:56Z</time>
      </trkpt>
      <trkpt lat="42.530160" lon="-6.508680">
        <ele>721.091</ele>
        <time>2020-04-02T14:31:16Z</time>
      </trkpt>
      <trkpt lat="42.530470" lon="-6.509160">
        <ele>721.094</ele>
        <time>2020-04-02T14:31:36Z</time>
      </trkpt>
      <trkpt lat="42.530930" lon="-6.510140">
        <ele>699.055</ele>
        <time>2020-04-02T14:31:56Z</time>
      </trkpt>
      <trkpt lat="42.530980" lon="-6.510570">
        <ele>698.029</ele>
        <time>2020-04-02T14:32:16Z</time>
      </trkpt>
      <trkpt lat="42.531220" lon="-6.510760">
        <ele>690.000</ele>
        <time>2020-04-02T14:32:36Z</time>
      </trkpt>
      <trkpt lat="42.531740" lon="-6.510550">
        <ele>700.020</ele>
        <time>2020-04-02T14:32:56Z</time>
      </trkpt>
      <trkpt lat="42.532280" lon="-6.510490">
        <ele>698.007</ele>
        <time>2020-04-02T14:33:16Z</time>
      </trkpt>
      <trkpt lat="42.532560" lon="-6.510520">
        <ele>698.035</ele>
        <time>2020-04-02T14:33:36Z</time>
      </trkpt>
      <trkpt lat="42.532780" lon="-6.511240">
        <ele>685.062</ele>
        <time>2020-04-02T14:33:56Z</time>
      </trkpt>
      <trkpt lat="42.532930" lon="-6.511350">
        <ele>673.062</ele>
        <time>2020-04-02T14:34:16Z</time>
      </trkpt>
      <trkpt lat="42.533060" lon="-6.511230">
        <ele>681.065</ele>
        <time>2020-04-02T14:34:36Z</time>
      </trkpt>
      <trkpt lat="42.533520" lon="-6.511280">
        <ele>660.020</ele>
        <time>2020-04-02T14:34:56Z</time>
      </trkpt>
      <trkpt lat="42.534360" lon="-6.511160">
        <ele>655.043</ele>
        <time>2020-04-02T14:35:16Z</time>
      </trkpt>
      <trkpt lat="42.535070" lon="-6.510890">
        <ele>657.064</ele>
        <time>2020-04-02T14:35:36Z</time>
      </trkpt>
      <trkpt lat="42.535160" lon="-6.511050">
        <ele>660.058</ele>
        <time>2020-04-02T14:35:56Z</time>
      </trkpt>
      <trkpt lat="42.535050" lon="-6.511220">
        <ele>655.052</ele>
        <time>2020-04-02T14:36:16Z</time>
      </trkpt>
      <trkpt lat="42.534970" lon="-6.511830">
        <ele>657.017</ele>
        <time>2020-04-02T14:36:36Z</time>
      </trkpt>
      <trkpt lat="42.534730" lon="-6.512060">
        <ele>651.007</ele>
        <time>2020-04-02T14:36:56Z</time>
      </trkpt>
      <trkpt lat="42.534180" lon="-6.513150">
        <ele>630.068</ele>
        <time>2020-04-02T14:37:16Z</time>
      </trkpt>
      <trkpt lat="42.534190" lon="-6.513620">
        <ele>620.085</ele>
        <time>2020-04-02T14:37:36Z</time>
      </trkpt>
      <trkpt lat="42.534210" lon="-6.513800">
        <ele>615.035</ele>
        <time>2020-04-02T14:37:56Z</time>
      </trkpt>
      <trkpt lat="42.534700" lon="-6.514280">
        <ele>630.098</ele>
        <time>2020-04-02T14:38:16Z</time>
      </trkpt>
      <trkpt lat="42.534800" lon="-6.514890">
        <ele>610.053</ele>
        <time>2020-04-02T14:38:36Z</time>
      </trkpt>
      <trkpt lat="42.534890" lon="-6.515090">
        <ele>623.046</ele>
        <time>2020-04-02T14:38:56Z</time>
      </trkpt>
      <trkpt lat="42.534800" lon="-6.515370">
        <ele>605.027</ele>
        <time>2020-04-02T14:39:16Z</time>
      </trkpt>
      <trkpt lat="42.534850" lon="-6.516040">
        <ele>598.021</ele>
        <time>2020-04-02T14:39:36Z</time>
      </trkpt>
      <trkpt lat="42.535100" lon="-6.516700">
        <ele>599.041</ele>
        <time>2020-04-02T14:39:56Z</time>
      </trkpt>
      <trkpt lat="42.537400" lon="-6.517910">
        <ele>592.005</ele>
        <time>2020-04-02T14:40:16Z</time>
      </trkpt>
      <trkpt lat="42.537570" lon="-6.518140">
        <ele>586.007</ele>
        <time>2020-04-02T14:40:36Z</time>
      </trkpt>
      <trkpt lat="42.537590" lon="-6.518980">
        <ele>579.085</ele>
        <time>2020-04-02T14:40:56Z</time>
      </trkpt>
      <trkpt lat="42.538640" lon="-6.522290">
        <ele>577.062</ele>
        <time>2020-04-02T14:41:16Z</time>
      </trkpt>
      <trkpt lat="42.541830" lon="-6.527770">
        <ele>565.092</ele>
        <time>2020-04-02T14:41:36Z</time>
      </trkpt>
      <trkpt lat="42.545630" lon="-6.535940">
        <ele>568.035</ele>
        <time>2020-04-02T14:41:56Z</time>
      </trkpt>
      <trkpt lat="42.545580" lon="-6.537500">
        <ele>576.040</ele>
        <time>2020-04-02T14:42:16Z</time>
      </trkpt>
      <trkpt lat="42.545760" lon="-6.538330">
        <ele>581.043</ele>
        <time>2020-04-02T14:42:36Z</time>
      </trkpt>
      <trkpt lat="42.546190" lon="-6.539150">
        <ele>582.074</ele>
        <time>2020-04-02T14:42:56Z</time>
      </trkpt>
      <trkpt lat="42.546370" lon="-6.542050">
        <ele>582.046</ele>
        <time>2020-04-02T14:43:16Z</time>
      </trkpt>
      <trkpt lat="42.545810" lon="-6.548560">
        <ele>610.088</ele>
        <time>2020-04-02T14:43:36Z</time>
      </trkpt>
      <trkpt lat="42.545330" lon="-6.549930">
        <ele>604.016</ele>
        <time>2020-04-02T14:43:56Z</time>
      </trkpt>
      <trkpt lat="42.545740" lon="-6.552030">
        <ele>594.007</ele>
        <time>2020-04-02T14:44:16Z</time>
      </trkpt>
      <trkpt lat="42.545190" lon="-6.553820">
        <ele>584.037</ele>
        <time>2020-04-02T14:44:36Z</time>
      </trkpt>
      <trkpt lat="42.545790" lon="-6.560500">
        <ele>551.084</ele>
        <time>2020-04-02T14:44:56Z</time>
      </trkpt>
      <trkpt lat="42.545230" lon="-6.563620">
        <ele>533.074</ele>
        <time>2020-04-02T14:45:16Z</time>
      </trkpt>
      <trkpt lat="42.545330" lon="-6.564690">
        <ele>524.097</ele>
        <time>2020-04-02T14:45:36Z</time>
      </trkpt>
      <trkpt lat="42.546500" lon="-6.565670">
        <ele>531.022</ele>
        <time>2020-04-02T14:45:56Z</time>
      </trkpt>
      <trkpt lat="42.546800" lon="-6.567270">
        <ele>528.065</ele>
        <time>2020-04-02T14:46:16Z</time>
      </trkpt>
      <trkpt lat="42.545160" lon="-6.571110">
        <ele>522.036</ele>
        <time>2020-04-02T14:46:36Z</time>
      </trkpt>
      <trkpt lat="42.545050" lon="-6.573830">
        <ele>516.032</ele>
        <time>2020-04-02T14:46:56Z</time>
      </trkpt>
      <trkpt lat="42.545510" lon="-6.577080">
        <ele>527.092</ele>
        <time>2020-04-02T14:47:16Z</time>
      </trkpt>
      <trkpt lat="42.546050" lon="-6.577790">
        <ele>532.011</ele>
        <time>2020-04-02T14:47:36Z</time>
      </trkpt>
      <trkpt lat="42.545540" lon="-6.582570">
        <ele>542.007</ele>
        <time>2020-04-02T14:47:56Z</time>
      </trkpt>
      <trkpt lat="42.544790" lon="-6.583660">
        <ele>543.016</ele>
        <time>2020-04-02T14:48:16Z</time>
      </trkpt>
      <trkpt lat="42.544580" lon="-6.584650">
        <ele>546.013</ele>
        <time>2020-04-02T14:48:36Z</time>
      </trkpt>
      <trkpt lat="42.544290" lon="-6.586630">
        <ele>540.073</ele>
        <time>2020-04-02T14:48:56Z</time>
      </trkpt>
      <trkpt lat="42.543940" lon="-6.587460">
        <ele>543.086</ele>
        <time>2020-04-02T14:49:16Z</time>
      </trkpt>
      <trkpt lat="42.542890" lon="-6.589230">
        <ele>536.091</ele>
        <time>2020-04-02T14:49:36Z</time>
      </trkpt>
      <trkpt lat="42.542830" lon="-6.590430">
        <ele>532.034</ele>
        <time>2020-04-02T14:49:56Z</time>
      </trkpt>
      <trkpt lat="42.542880" lon="-6.591900">
        <ele>534.055</ele>
        <time>2020-04-02T14:50:16Z</time>
      </trkpt>
      <trkpt lat="42.543060" lon="-6.592890">
        <ele>538.096</ele>
        <time>2020-04-02T14:50:36Z</time>
      </trkpt>
      <trkpt lat="42.543030" lon="-6.593520">
        <ele>535.031</ele>
        <time>2020-04-02T14:50:56Z</time>
      </trkpt>
      <trkpt lat="42.544040" lon="-6.592620">
        <ele>543.024</ele>
        <time>2020-04-02T14:51:16Z</time>
      </trkpt>
      <trkpt lat="42.544860" lon="-6.592860">
        <ele>538.007</ele>
        <time>2020-04-02T14:51:36Z</time>
      </trkpt>
      <trkpt lat="42.545090" lon="-6.593230">
        <ele>529.042</ele>
        <time>2020-04-02T14:51:56Z</time>
      </trkpt>
      <trkpt lat="42.545410" lon="-6.593050">
        <ele>528.069</ele>
        <time>2020-04-02T14:52:16Z</time>
      </trkpt>
      <trkpt lat="42.545440" lon="-6.592700">
        <ele>527.079</ele>
        <time>2020-04-02T14:52:36Z</time>
      </trkpt>
      <trkpt lat="42.546900" lon="-6.592420">
        <ele>522.072</ele>
        <time>2020-04-02T14:52:56Z</time>
      </trkpt>
      <trkpt lat="42.547930" lon="-6.597610">
        <ele>519.037</ele>
        <time>2020-04-02T14:53:16Z</time>
      </trkpt>
      <trkpt lat="42.547870" lon="-6.598110">
        <ele>524.010</ele>
        <time>2020-04-02T14:53:36Z</time>
      </trkpt>
      <trkpt lat="42.548070" lon="-6.598390">
        <ele>527.081</ele>
        <time>2020-04-02T14:53:56Z</time>
      </trkpt>
      <trkpt lat="42.548610" lon="-6.600720">
        <ele>530.096</ele>
        <time>2020-04-02T14:54:16Z</time>
      </trkpt>
      <trkpt lat="42.550300" lon="-6.603900">
        <ele>524.031</ele>
        <time>2020-04-02T14:54:36Z</time>
      </trkpt>
      <trkpt lat="42.553730" lon="-6.610620">
        <ele>520.024</ele>
        <time>2020-04-02T14:54:56Z</time>
      </trkpt>
      <trkpt lat="42.581060" lon="-6.672270">
        <ele>488.007</ele>
        <time>2020-04-02T14:55:16Z</time>
      </trkpt>
      <trkpt lat="42.587320" lon="-6.678920">
        <ele>519.022</ele>
        <time>2020-04-02T14:55:36Z</time>
      </trkpt>
      <trkpt lat="42.586990" lon="-6.680800">
        <ele>517.069</ele>
        <time>2020-04-02T14:55:56Z</time>
      </trkpt>
      <trkpt lat="42.588280" lon="-6.683420">
        <ele>510.019</ele>
        <time>2020-04-02T14:56:16Z</time>
      </trkpt>
      <trkpt lat="42.588450" lon="-6.685680">
        <ele>509.012</ele>
        <time>2020-04-02T14:56:36Z</time>
      </trkpt>
      <trkpt lat="42.589310" lon="-6.688720">
        <ele>497.097</ele>
        <time>2020-04-02T14:56:56Z</time>
      </trkpt>
      <trkpt lat="42.589450" lon="-6.689130">
        <ele>497.040</ele>
        <time>2020-04-02T14:57:16Z</time>
      </trkpt>
      <trkpt lat="42.589380" lon="-6.690040">
        <ele>494.051</ele>
        <time>2020-04-02T14:57:36Z</time>
      </trkpt>
      <trkpt lat="42.589800" lon="-6.691580">
        <ele>490.049</ele>
        <time>2020-04-02T14:57:56Z</time>
      </trkpt>
      <trkpt lat="42.590590" lon="-6.692630">
        <ele>492.002</ele>
        <time>2020-04-02T14:58:16Z</time>
      </trkpt>
      <trkpt lat="42.593100" lon="-6.700670">
        <ele>492.022</ele>
        <time>2020-04-02T14:58:36Z</time>
      </trkpt>
      <trkpt lat="42.593560" lon="-6.703330">
        <ele>503.007</ele>
        <time>2020-04-02T14:58:56Z</time>
      </trkpt>
      <trkpt lat="42.597550" lon="-6.713450">
        <ele>500.077</ele>
        <time>2020-04-02T14:59:16Z</time>
      </trkpt>
      <trkpt lat="42.598700" lon="-6.714770">
        <ele>496.074</ele>
        <time>2020-04-02T14:59:36Z</time>
      </trkpt>
      <trkpt lat="42.599650" lon="-6.716510">
        <ele>481.084</ele>
        <time>2020-04-02T14:59:56Z</time>
      </trkpt>
      <trkpt lat="42.599720" lon="-6.722710">
        <ele>487.057</ele>
        <time>2020-04-02T15:00:16Z</time>
      </trkpt>
      <trkpt lat="42.599900" lon="-6.724690">
        <ele>481.042</ele>
        <time>2020-04-02T15:00:36Z</time>
      </trkpt>
      <trkpt lat="42.599760" lon="-6.725540">
        <ele>480.045</ele>
        <time>2020-04-02T15:00:56Z</time>
      </trkpt>
      <trkpt lat="42.599540" lon="-6.726000">
        <ele>480.016</ele>
        <time>2020-04-02T15:01:16Z</time>
      </trkpt>
      <trkpt lat="42.599890" lon="-6.726960">
        <ele>481.026</ele>
        <time>2020-04-02T15:01:36Z</time>
      </trkpt>
      <trkpt lat="42.600040" lon="-6.730930">
        <ele>478.047</ele>
        <time>2020-04-02T15:01:56Z</time>
      </trkpt>
      <trkpt lat="42.600100" lon="-6.731350">
        <ele>479.011</ele>
        <time>2020-04-02T15:02:16Z</time>
      </trkpt>
    </trkseg>
  </trk>
</gpx>
